<?xml version="1.0" encoding="UTF-8" standalone="no" ?>
<gpx xmlns="http://www.topografix.com/GPX/1/1" xmlns:xsi="http://www.w3.org/2001/XMLSchema-instance" xsi:schemaLocation="http://www.topografix.com/GPX/1/1 http://www.topografix.com/GPX/1/1/gpx.xsd" version="1.1" creator="VisuGPX - https://www.visugpx.com">
  <metadata>
    <name>Footing Saint Sauveur 2</name>
    <desc><![CDATA[Autre parcours à Saint Sauveur pour décrasser après une grosse rando....]]></desc>
  </metadata>
  <trk>
    <name><![CDATA[Track 001]]></name>
    <trkseg>
      <trkpt lat="43.7084" lon="3.83428">
        <ele>174</ele>
        <time>2008-09-28T08:18:10Z</time>
      </trkpt>
      <trkpt lat="43.70842" lon="3.83424">
        <ele>173</ele>
        <time>2008-09-28T08:18:14Z</time>
      </trkpt>
      <trkpt lat="43.70842" lon="3.83422">
        <ele>172</ele>
        <time>2008-09-28T08:18:18Z</time>
      </trkpt>
      <trkpt lat="43.70843" lon="3.83419">
        <ele>171</ele>
        <time>2008-09-28T08:18:22Z</time>
      </trkpt>
      <trkpt lat="43.70844" lon="3.83417">
        <ele>170</ele>
        <time>2008-09-28T08:18:26Z</time>
      </trkpt>
      <trkpt lat="43.70844" lon="3.83415">
        <ele>169</ele>
        <time>2008-09-28T08:18:30Z</time>
      </trkpt>
      <trkpt lat="43.70845" lon="3.83414">
        <ele>169</ele>
        <time>2008-09-28T08:18:34Z</time>
      </trkpt>
      <trkpt lat="43.70845" lon="3.83413">
        <ele>168</ele>
        <time>2008-09-28T08:18:38Z</time>
      </trkpt>
      <trkpt lat="43.70845" lon="3.83412">
        <ele>167</ele>
        <time>2008-09-28T08:18:42Z</time>
      </trkpt>
      <trkpt lat="43.70846" lon="3.83411">
        <ele>167</ele>
        <time>2008-09-28T08:18:46Z</time>
      </trkpt>
      <trkpt lat="43.70846" lon="3.83411">
        <ele>166</ele>
        <time>2008-09-28T08:18:50Z</time>
      </trkpt>
      <trkpt lat="43.70847" lon="3.8341">
        <ele>165</ele>
        <time>2008-09-28T08:18:54Z</time>
      </trkpt>
      <trkpt lat="43.70848" lon="3.8341">
        <ele>165</ele>
        <time>2008-09-28T08:18:58Z</time>
      </trkpt>
      <trkpt lat="43.70849" lon="3.8341">
        <ele>164</ele>
        <time>2008-09-28T08:19:02Z</time>
      </trkpt>
      <trkpt lat="43.70849" lon="3.8341">
        <ele>163</ele>
        <time>2008-09-28T08:19:06Z</time>
      </trkpt>
      <trkpt lat="43.7085" lon="3.8341">
        <ele>163</ele>
        <time>2008-09-28T08:19:10Z</time>
      </trkpt>
      <trkpt lat="43.70851" lon="3.83409">
        <ele>162</ele>
        <time>2008-09-28T08:19:14Z</time>
      </trkpt>
      <trkpt lat="43.70852" lon="3.83409">
        <ele>162</ele>
        <time>2008-09-28T08:19:18Z</time>
      </trkpt>
      <trkpt lat="43.70853" lon="3.83409">
        <ele>162</ele>
        <time>2008-09-28T08:19:22Z</time>
      </trkpt>
      <trkpt lat="43.70853" lon="3.83409">
        <ele>161</ele>
        <time>2008-09-28T08:19:26Z</time>
      </trkpt>
      <trkpt lat="43.70854" lon="3.83409">
        <ele>161</ele>
        <time>2008-09-28T08:19:30Z</time>
      </trkpt>
      <trkpt lat="43.70855" lon="3.83409">
        <ele>160</ele>
        <time>2008-09-28T08:19:34Z</time>
      </trkpt>
      <trkpt lat="43.70856" lon="3.83409">
        <ele>160</ele>
        <time>2008-09-28T08:19:38Z</time>
      </trkpt>
      <trkpt lat="43.70856" lon="3.83409">
        <ele>160</ele>
        <time>2008-09-28T08:19:42Z</time>
      </trkpt>
      <trkpt lat="43.70857" lon="3.83409">
        <ele>159</ele>
        <time>2008-09-28T08:19:46Z</time>
      </trkpt>
      <trkpt lat="43.70857" lon="3.83409">
        <ele>159</ele>
        <time>2008-09-28T08:19:50Z</time>
      </trkpt>
      <trkpt lat="43.70858" lon="3.83408">
        <ele>159</ele>
        <time>2008-09-28T08:19:54Z</time>
      </trkpt>
      <trkpt lat="43.70859" lon="3.83408">
        <ele>159</ele>
        <time>2008-09-28T08:19:58Z</time>
      </trkpt>
      <trkpt lat="43.70859" lon="3.83408">
        <ele>158</ele>
        <time>2008-09-28T08:20:03Z</time>
      </trkpt>
      <trkpt lat="43.7086" lon="3.83407">
        <ele>158</ele>
        <time>2008-09-28T08:20:07Z</time>
      </trkpt>
      <trkpt lat="43.7086" lon="3.83407">
        <ele>158</ele>
        <time>2008-09-28T08:20:11Z</time>
      </trkpt>
      <trkpt lat="43.70861" lon="3.83407">
        <ele>158</ele>
        <time>2008-09-28T08:20:15Z</time>
      </trkpt>
      <trkpt lat="43.70861" lon="3.83406">
        <ele>158</ele>
        <time>2008-09-28T08:20:19Z</time>
      </trkpt>
      <trkpt lat="43.70861" lon="3.83406">
        <ele>157</ele>
        <time>2008-09-28T08:20:23Z</time>
      </trkpt>
      <trkpt lat="43.70862" lon="3.83406">
        <ele>157</ele>
        <time>2008-09-28T08:20:27Z</time>
      </trkpt>
      <trkpt lat="43.70862" lon="3.83406">
        <ele>157</ele>
        <time>2008-09-28T08:20:31Z</time>
      </trkpt>
      <trkpt lat="43.70862" lon="3.83406">
        <ele>157</ele>
        <time>2008-09-28T08:20:35Z</time>
      </trkpt>
      <trkpt lat="43.70862" lon="3.83406">
        <ele>157</ele>
        <time>2008-09-28T08:20:39Z</time>
      </trkpt>
      <trkpt lat="43.70863" lon="3.83406">
        <ele>157</ele>
        <time>2008-09-28T08:20:43Z</time>
      </trkpt>
      <trkpt lat="43.70863" lon="3.83407">
        <ele>156</ele>
        <time>2008-09-28T08:20:47Z</time>
      </trkpt>
      <trkpt lat="43.70863" lon="3.83407">
        <ele>156</ele>
        <time>2008-09-28T08:20:51Z</time>
      </trkpt>
      <trkpt lat="43.70863" lon="3.83407">
        <ele>156</ele>
        <time>2008-09-28T08:20:55Z</time>
      </trkpt>
      <trkpt lat="43.70864" lon="3.83407">
        <ele>156</ele>
        <time>2008-09-28T08:20:59Z</time>
      </trkpt>
      <trkpt lat="43.70864" lon="3.83407">
        <ele>156</ele>
        <time>2008-09-28T08:21:03Z</time>
      </trkpt>
      <trkpt lat="43.70864" lon="3.83408">
        <ele>156</ele>
        <time>2008-09-28T08:21:07Z</time>
      </trkpt>
      <trkpt lat="43.70864" lon="3.83409">
        <ele>155</ele>
        <time>2008-09-28T08:21:11Z</time>
      </trkpt>
      <trkpt lat="43.70864" lon="3.83411">
        <ele>155</ele>
        <time>2008-09-28T08:21:15Z</time>
      </trkpt>
      <trkpt lat="43.7087" lon="3.835">
        <ele>144</ele>
        <time>2008-09-28T08:21:19Z</time>
      </trkpt>
      <trkpt lat="43.70872" lon="3.83507">
        <ele>144</ele>
        <time>2008-09-28T08:21:23Z</time>
      </trkpt>
      <trkpt lat="43.70872" lon="3.83514">
        <ele>144</ele>
        <time>2008-09-28T08:21:27Z</time>
      </trkpt>
      <trkpt lat="43.70873" lon="3.8352">
        <ele>144</ele>
        <time>2008-09-28T08:21:31Z</time>
      </trkpt>
      <trkpt lat="43.70872" lon="3.83526">
        <ele>143</ele>
        <time>2008-09-28T08:21:35Z</time>
      </trkpt>
      <trkpt lat="43.70871" lon="3.83532">
        <ele>143</ele>
        <time>2008-09-28T08:21:39Z</time>
      </trkpt>
      <trkpt lat="43.70871" lon="3.83536">
        <ele>143</ele>
        <time>2008-09-28T08:21:43Z</time>
      </trkpt>
      <trkpt lat="43.70871" lon="3.83541">
        <ele>143</ele>
        <time>2008-09-28T08:21:47Z</time>
      </trkpt>
      <trkpt lat="43.70872" lon="3.83544">
        <ele>142</ele>
        <time>2008-09-28T08:21:51Z</time>
      </trkpt>
      <trkpt lat="43.70874" lon="3.83548">
        <ele>142</ele>
        <time>2008-09-28T08:21:55Z</time>
      </trkpt>
      <trkpt lat="43.70876" lon="3.8355">
        <ele>142</ele>
        <time>2008-09-28T08:21:59Z</time>
      </trkpt>
      <trkpt lat="43.70877" lon="3.83552">
        <ele>142</ele>
        <time>2008-09-28T08:22:03Z</time>
      </trkpt>
      <trkpt lat="43.70878" lon="3.83554">
        <ele>141</ele>
        <time>2008-09-28T08:22:07Z</time>
      </trkpt>
      <trkpt lat="43.70879" lon="3.83556">
        <ele>141</ele>
        <time>2008-09-28T08:22:11Z</time>
      </trkpt>
      <trkpt lat="43.70879" lon="3.83557">
        <ele>141</ele>
        <time>2008-09-28T08:22:15Z</time>
      </trkpt>
      <trkpt lat="43.70879" lon="3.83558">
        <ele>141</ele>
        <time>2008-09-28T08:22:19Z</time>
      </trkpt>
      <trkpt lat="43.70879" lon="3.83559">
        <ele>141</ele>
        <time>2008-09-28T08:22:23Z</time>
      </trkpt>
      <trkpt lat="43.70879" lon="3.83561">
        <ele>140</ele>
        <time>2008-09-28T08:22:27Z</time>
      </trkpt>
      <trkpt lat="43.7088" lon="3.83563">
        <ele>140</ele>
        <time>2008-09-28T08:22:31Z</time>
      </trkpt>
      <trkpt lat="43.70881" lon="3.83565">
        <ele>140</ele>
        <time>2008-09-28T08:22:35Z</time>
      </trkpt>
      <trkpt lat="43.70882" lon="3.83567">
        <ele>140</ele>
        <time>2008-09-28T08:22:39Z</time>
      </trkpt>
      <trkpt lat="43.70882" lon="3.83569">
        <ele>140</ele>
        <time>2008-09-28T08:22:43Z</time>
      </trkpt>
      <trkpt lat="43.70882" lon="3.83572">
        <ele>140</ele>
        <time>2008-09-28T08:22:47Z</time>
      </trkpt>
      <trkpt lat="43.70882" lon="3.83575">
        <ele>139</ele>
        <time>2008-09-28T08:22:51Z</time>
      </trkpt>
      <trkpt lat="43.70881" lon="3.83578">
        <ele>139</ele>
        <time>2008-09-28T08:22:55Z</time>
      </trkpt>
      <trkpt lat="43.70875" lon="3.83669">
        <ele>134</ele>
        <time>2008-09-28T08:22:59Z</time>
      </trkpt>
      <trkpt lat="43.70876" lon="3.83678">
        <ele>134</ele>
        <time>2008-09-28T08:23:03Z</time>
      </trkpt>
      <trkpt lat="43.70876" lon="3.83685">
        <ele>133</ele>
        <time>2008-09-28T08:23:07Z</time>
      </trkpt>
      <trkpt lat="43.70877" lon="3.83694">
        <ele>133</ele>
        <time>2008-09-28T08:23:11Z</time>
      </trkpt>
      <trkpt lat="43.70878" lon="3.83702">
        <ele>133</ele>
        <time>2008-09-28T08:23:15Z</time>
      </trkpt>
      <trkpt lat="43.70879" lon="3.83712">
        <ele>132</ele>
        <time>2008-09-28T08:23:19Z</time>
      </trkpt>
      <trkpt lat="43.70891" lon="3.83776">
        <ele>129</ele>
        <time>2008-09-28T08:23:23Z</time>
      </trkpt>
      <trkpt lat="43.70895" lon="3.8378">
        <ele>129</ele>
        <time>2008-09-28T08:23:27Z</time>
      </trkpt>
      <trkpt lat="43.70899" lon="3.83783">
        <ele>129</ele>
        <time>2008-09-28T08:23:31Z</time>
      </trkpt>
      <trkpt lat="43.70902" lon="3.83784">
        <ele>128</ele>
        <time>2008-09-28T08:23:35Z</time>
      </trkpt>
      <trkpt lat="43.70906" lon="3.83785">
        <ele>128</ele>
        <time>2008-09-28T08:23:39Z</time>
      </trkpt>
      <trkpt lat="43.7091" lon="3.83785">
        <ele>128</ele>
        <time>2008-09-28T08:23:43Z</time>
      </trkpt>
      <trkpt lat="43.70914" lon="3.83786">
        <ele>128</ele>
        <time>2008-09-28T08:23:47Z</time>
      </trkpt>
      <trkpt lat="43.70918" lon="3.83786">
        <ele>127</ele>
        <time>2008-09-28T08:23:51Z</time>
      </trkpt>
      <trkpt lat="43.70923" lon="3.83786">
        <ele>127</ele>
        <time>2008-09-28T08:23:55Z</time>
      </trkpt>
      <trkpt lat="43.70928" lon="3.83786">
        <ele>127</ele>
        <time>2008-09-28T08:23:59Z</time>
      </trkpt>
      <trkpt lat="43.70932" lon="3.83785">
        <ele>126</ele>
        <time>2008-09-28T08:24:03Z</time>
      </trkpt>
      <trkpt lat="43.70935" lon="3.83785">
        <ele>126</ele>
        <time>2008-09-28T08:24:07Z</time>
      </trkpt>
      <trkpt lat="43.70938" lon="3.83785">
        <ele>126</ele>
        <time>2008-09-28T08:24:11Z</time>
      </trkpt>
      <trkpt lat="43.70941" lon="3.83785">
        <ele>126</ele>
        <time>2008-09-28T08:24:15Z</time>
      </trkpt>
      <trkpt lat="43.70943" lon="3.83785">
        <ele>125</ele>
        <time>2008-09-28T08:24:19Z</time>
      </trkpt>
      <trkpt lat="43.70944" lon="3.83786">
        <ele>125</ele>
        <time>2008-09-28T08:24:23Z</time>
      </trkpt>
      <trkpt lat="43.70945" lon="3.83786">
        <ele>125</ele>
        <time>2008-09-28T08:24:27Z</time>
      </trkpt>
      <trkpt lat="43.70945" lon="3.83786">
        <ele>125</ele>
        <time>2008-09-28T08:24:31Z</time>
      </trkpt>
      <trkpt lat="43.70945" lon="3.83787">
        <ele>124</ele>
        <time>2008-09-28T08:24:35Z</time>
      </trkpt>
      <trkpt lat="43.70945" lon="3.83788">
        <ele>124</ele>
        <time>2008-09-28T08:24:39Z</time>
      </trkpt>
      <trkpt lat="43.70945" lon="3.83789">
        <ele>124</ele>
        <time>2008-09-28T08:24:43Z</time>
      </trkpt>
      <trkpt lat="43.70946" lon="3.8379">
        <ele>124</ele>
        <time>2008-09-28T08:24:47Z</time>
      </trkpt>
      <trkpt lat="43.70947" lon="3.83791">
        <ele>124</ele>
        <time>2008-09-28T08:24:51Z</time>
      </trkpt>
      <trkpt lat="43.70949" lon="3.83792">
        <ele>123</ele>
        <time>2008-09-28T08:24:55Z</time>
      </trkpt>
      <trkpt lat="43.7095" lon="3.83793">
        <ele>123</ele>
        <time>2008-09-28T08:24:59Z</time>
      </trkpt>
      <trkpt lat="43.70952" lon="3.83794">
        <ele>123</ele>
        <time>2008-09-28T08:25:03Z</time>
      </trkpt>
      <trkpt lat="43.71016" lon="3.83811">
        <ele>118</ele>
        <time>2008-09-28T08:25:07Z</time>
      </trkpt>
      <trkpt lat="43.71022" lon="3.8381">
        <ele>118</ele>
        <time>2008-09-28T08:25:11Z</time>
      </trkpt>
      <trkpt lat="43.71027" lon="3.83811">
        <ele>118</ele>
        <time>2008-09-28T08:25:15Z</time>
      </trkpt>
      <trkpt lat="43.71032" lon="3.83812">
        <ele>117</ele>
        <time>2008-09-28T08:25:19Z</time>
      </trkpt>
      <trkpt lat="43.71036" lon="3.83813">
        <ele>117</ele>
        <time>2008-09-28T08:25:23Z</time>
      </trkpt>
      <trkpt lat="43.7104" lon="3.83814">
        <ele>117</ele>
        <time>2008-09-28T08:25:27Z</time>
      </trkpt>
      <trkpt lat="43.71044" lon="3.83815">
        <ele>117</ele>
        <time>2008-09-28T08:25:31Z</time>
      </trkpt>
      <trkpt lat="43.71081" lon="3.83822">
        <ele>115</ele>
        <time>2008-09-28T08:25:35Z</time>
      </trkpt>
      <trkpt lat="43.71086" lon="3.83822">
        <ele>114</ele>
        <time>2008-09-28T08:25:39Z</time>
      </trkpt>
      <trkpt lat="43.71089" lon="3.83824">
        <ele>114</ele>
        <time>2008-09-28T08:25:43Z</time>
      </trkpt>
      <trkpt lat="43.71089" lon="3.83826">
        <ele>114</ele>
        <time>2008-09-28T08:25:47Z</time>
      </trkpt>
      <trkpt lat="43.71089" lon="3.83828">
        <ele>114</ele>
        <time>2008-09-28T08:25:51Z</time>
      </trkpt>
      <trkpt lat="43.71088" lon="3.8383">
        <ele>113</ele>
        <time>2008-09-28T08:25:55Z</time>
      </trkpt>
      <trkpt lat="43.71086" lon="3.83832">
        <ele>113</ele>
        <time>2008-09-28T08:25:59Z</time>
      </trkpt>
      <trkpt lat="43.71084" lon="3.83834">
        <ele>113</ele>
        <time>2008-09-28T08:26:03Z</time>
      </trkpt>
      <trkpt lat="43.71084" lon="3.83835">
        <ele>113</ele>
        <time>2008-09-28T08:26:07Z</time>
      </trkpt>
      <trkpt lat="43.71083" lon="3.83837">
        <ele>112</ele>
        <time>2008-09-28T08:26:11Z</time>
      </trkpt>
      <trkpt lat="43.71084" lon="3.83838">
        <ele>112</ele>
        <time>2008-09-28T08:26:15Z</time>
      </trkpt>
      <trkpt lat="43.71084" lon="3.8384">
        <ele>112</ele>
        <time>2008-09-28T08:26:19Z</time>
      </trkpt>
      <trkpt lat="43.71084" lon="3.83842">
        <ele>112</ele>
        <time>2008-09-28T08:26:23Z</time>
      </trkpt>
      <trkpt lat="43.71084" lon="3.83845">
        <ele>112</ele>
        <time>2008-09-28T08:26:27Z</time>
      </trkpt>
      <trkpt lat="43.71084" lon="3.83849">
        <ele>112</ele>
        <time>2008-09-28T08:26:31Z</time>
      </trkpt>
      <trkpt lat="43.71085" lon="3.83853">
        <ele>111</ele>
        <time>2008-09-28T08:26:35Z</time>
      </trkpt>
      <trkpt lat="43.71085" lon="3.83856">
        <ele>111</ele>
        <time>2008-09-28T08:26:39Z</time>
      </trkpt>
      <trkpt lat="43.71085" lon="3.83859">
        <ele>111</ele>
        <time>2008-09-28T08:26:43Z</time>
      </trkpt>
      <trkpt lat="43.71085" lon="3.83862">
        <ele>111</ele>
        <time>2008-09-28T08:26:47Z</time>
      </trkpt>
      <trkpt lat="43.71086" lon="3.83865">
        <ele>111</ele>
        <time>2008-09-28T08:26:51Z</time>
      </trkpt>
      <trkpt lat="43.71086" lon="3.83867">
        <ele>111</ele>
        <time>2008-09-28T08:26:55Z</time>
      </trkpt>
      <trkpt lat="43.71087" lon="3.83869">
        <ele>110</ele>
        <time>2008-09-28T08:26:59Z</time>
      </trkpt>
      <trkpt lat="43.71087" lon="3.8387">
        <ele>110</ele>
        <time>2008-09-28T08:27:03Z</time>
      </trkpt>
      <trkpt lat="43.71088" lon="3.83871">
        <ele>110</ele>
        <time>2008-09-28T08:27:07Z</time>
      </trkpt>
      <trkpt lat="43.71089" lon="3.83872">
        <ele>110</ele>
        <time>2008-09-28T08:27:11Z</time>
      </trkpt>
      <trkpt lat="43.7109" lon="3.83874">
        <ele>110</ele>
        <time>2008-09-28T08:27:15Z</time>
      </trkpt>
      <trkpt lat="43.71091" lon="3.83875">
        <ele>110</ele>
        <time>2008-09-28T08:27:19Z</time>
      </trkpt>
      <trkpt lat="43.71092" lon="3.83876">
        <ele>109</ele>
        <time>2008-09-28T08:27:23Z</time>
      </trkpt>
      <trkpt lat="43.71093" lon="3.83877">
        <ele>109</ele>
        <time>2008-09-28T08:27:27Z</time>
      </trkpt>
      <trkpt lat="43.71094" lon="3.83879">
        <ele>109</ele>
        <time>2008-09-28T08:27:31Z</time>
      </trkpt>
      <trkpt lat="43.71096" lon="3.8388">
        <ele>109</ele>
        <time>2008-09-28T08:27:35Z</time>
      </trkpt>
      <trkpt lat="43.71097" lon="3.83882">
        <ele>109</ele>
        <time>2008-09-28T08:27:39Z</time>
      </trkpt>
      <trkpt lat="43.71148" lon="3.83941">
        <ele>103</ele>
        <time>2008-09-28T08:27:43Z</time>
      </trkpt>
      <trkpt lat="43.7115" lon="3.83945">
        <ele>103</ele>
        <time>2008-09-28T08:27:47Z</time>
      </trkpt>
      <trkpt lat="43.71152" lon="3.83949">
        <ele>103</ele>
        <time>2008-09-28T08:27:51Z</time>
      </trkpt>
      <trkpt lat="43.71154" lon="3.83953">
        <ele>103</ele>
        <time>2008-09-28T08:27:55Z</time>
      </trkpt>
      <trkpt lat="43.71156" lon="3.83956">
        <ele>103</ele>
        <time>2008-09-28T08:27:59Z</time>
      </trkpt>
      <trkpt lat="43.71158" lon="3.83959">
        <ele>103</ele>
        <time>2008-09-28T08:28:03Z</time>
      </trkpt>
      <trkpt lat="43.7116" lon="3.8396">
        <ele>103</ele>
        <time>2008-09-28T08:28:07Z</time>
      </trkpt>
      <trkpt lat="43.71162" lon="3.83961">
        <ele>103</ele>
        <time>2008-09-28T08:28:11Z</time>
      </trkpt>
      <trkpt lat="43.71163" lon="3.83961">
        <ele>103</ele>
        <time>2008-09-28T08:28:15Z</time>
      </trkpt>
      <trkpt lat="43.71164" lon="3.83962">
        <ele>103</ele>
        <time>2008-09-28T08:28:19Z</time>
      </trkpt>
      <trkpt lat="43.71165" lon="3.83962">
        <ele>103</ele>
        <time>2008-09-28T08:28:23Z</time>
      </trkpt>
      <trkpt lat="43.71166" lon="3.83963">
        <ele>103</ele>
        <time>2008-09-28T08:28:27Z</time>
      </trkpt>
      <trkpt lat="43.71168" lon="3.83964">
        <ele>103</ele>
        <time>2008-09-28T08:28:31Z</time>
      </trkpt>
      <trkpt lat="43.71169" lon="3.83965">
        <ele>103</ele>
        <time>2008-09-28T08:28:35Z</time>
      </trkpt>
      <trkpt lat="43.71171" lon="3.83966">
        <ele>103</ele>
        <time>2008-09-28T08:28:39Z</time>
      </trkpt>
      <trkpt lat="43.71172" lon="3.83967">
        <ele>103</ele>
        <time>2008-09-28T08:28:43Z</time>
      </trkpt>
      <trkpt lat="43.71174" lon="3.83969">
        <ele>103</ele>
        <time>2008-09-28T08:28:47Z</time>
      </trkpt>
      <trkpt lat="43.71175" lon="3.83971">
        <ele>103</ele>
        <time>2008-09-28T08:28:51Z</time>
      </trkpt>
      <trkpt lat="43.71177" lon="3.83974">
        <ele>103</ele>
        <time>2008-09-28T08:28:55Z</time>
      </trkpt>
      <trkpt lat="43.71224" lon="3.84034">
        <ele>103</ele>
        <time>2008-09-28T08:28:59Z</time>
      </trkpt>
      <trkpt lat="43.71233" lon="3.84038">
        <ele>103</ele>
        <time>2008-09-28T08:29:03Z</time>
      </trkpt>
      <trkpt lat="43.71236" lon="3.8404">
        <ele>103</ele>
        <time>2008-09-28T08:29:07Z</time>
      </trkpt>
      <trkpt lat="43.71239" lon="3.84041">
        <ele>103</ele>
        <time>2008-09-28T08:29:11Z</time>
      </trkpt>
      <trkpt lat="43.71242" lon="3.84042">
        <ele>103</ele>
        <time>2008-09-28T08:29:15Z</time>
      </trkpt>
      <trkpt lat="43.71244" lon="3.84042">
        <ele>102</ele>
        <time>2008-09-28T08:29:19Z</time>
      </trkpt>
      <trkpt lat="43.71246" lon="3.84043">
        <ele>102</ele>
        <time>2008-09-28T08:29:23Z</time>
      </trkpt>
      <trkpt lat="43.71247" lon="3.84046">
        <ele>102</ele>
        <time>2008-09-28T08:29:27Z</time>
      </trkpt>
      <trkpt lat="43.71247" lon="3.8405">
        <ele>102</ele>
        <time>2008-09-28T08:29:31Z</time>
      </trkpt>
      <trkpt lat="43.71248" lon="3.84054">
        <ele>102</ele>
        <time>2008-09-28T08:29:35Z</time>
      </trkpt>
      <trkpt lat="43.71248" lon="3.8406">
        <ele>102</ele>
        <time>2008-09-28T08:29:39Z</time>
      </trkpt>
      <trkpt lat="43.71248" lon="3.84065">
        <ele>102</ele>
        <time>2008-09-28T08:29:43Z</time>
      </trkpt>
      <trkpt lat="43.71248" lon="3.84149">
        <ele>102</ele>
        <time>2008-09-28T08:29:47Z</time>
      </trkpt>
      <trkpt lat="43.71248" lon="3.84156">
        <ele>101</ele>
        <time>2008-09-28T08:29:51Z</time>
      </trkpt>
      <trkpt lat="43.71248" lon="3.8416">
        <ele>102</ele>
        <time>2008-09-28T08:29:55Z</time>
      </trkpt>
      <trkpt lat="43.71248" lon="3.84164">
        <ele>101</ele>
        <time>2008-09-28T08:29:59Z</time>
      </trkpt>
      <trkpt lat="43.71248" lon="3.84168">
        <ele>101</ele>
        <time>2008-09-28T08:30:03Z</time>
      </trkpt>
      <trkpt lat="43.7125" lon="3.84171">
        <ele>101</ele>
        <time>2008-09-28T08:30:07Z</time>
      </trkpt>
      <trkpt lat="43.71253" lon="3.84173">
        <ele>101</ele>
        <time>2008-09-28T08:30:11Z</time>
      </trkpt>
      <trkpt lat="43.71256" lon="3.84174">
        <ele>101</ele>
        <time>2008-09-28T08:30:15Z</time>
      </trkpt>
      <trkpt lat="43.71259" lon="3.84175">
        <ele>101</ele>
        <time>2008-09-28T08:30:19Z</time>
      </trkpt>
      <trkpt lat="43.71262" lon="3.84177">
        <ele>101</ele>
        <time>2008-09-28T08:30:23Z</time>
      </trkpt>
      <trkpt lat="43.71264" lon="3.84179">
        <ele>101</ele>
        <time>2008-09-28T08:30:27Z</time>
      </trkpt>
      <trkpt lat="43.71266" lon="3.8418">
        <ele>101</ele>
        <time>2008-09-28T08:30:31Z</time>
      </trkpt>
      <trkpt lat="43.71268" lon="3.84182">
        <ele>101</ele>
        <time>2008-09-28T08:30:35Z</time>
      </trkpt>
      <trkpt lat="43.7127" lon="3.84183">
        <ele>101</ele>
        <time>2008-09-28T08:30:39Z</time>
      </trkpt>
      <trkpt lat="43.71272" lon="3.84184">
        <ele>100</ele>
        <time>2008-09-28T08:30:43Z</time>
      </trkpt>
      <trkpt lat="43.71274" lon="3.84185">
        <ele>100</ele>
        <time>2008-09-28T08:30:47Z</time>
      </trkpt>
      <trkpt lat="43.71276" lon="3.84187">
        <ele>100</ele>
        <time>2008-09-28T08:30:51Z</time>
      </trkpt>
      <trkpt lat="43.71277" lon="3.84188">
        <ele>100</ele>
        <time>2008-09-28T08:30:55Z</time>
      </trkpt>
      <trkpt lat="43.71279" lon="3.84189">
        <ele>100</ele>
        <time>2008-09-28T08:30:59Z</time>
      </trkpt>
      <trkpt lat="43.7128" lon="3.8419">
        <ele>100</ele>
        <time>2008-09-28T08:31:03Z</time>
      </trkpt>
      <trkpt lat="43.7128" lon="3.84191">
        <ele>100</ele>
        <time>2008-09-28T08:31:07Z</time>
      </trkpt>
      <trkpt lat="43.71281" lon="3.84192">
        <ele>100</ele>
        <time>2008-09-28T08:31:11Z</time>
      </trkpt>
      <trkpt lat="43.71281" lon="3.84193">
        <ele>100</ele>
        <time>2008-09-28T08:31:15Z</time>
      </trkpt>
      <trkpt lat="43.71282" lon="3.84194">
        <ele>100</ele>
        <time>2008-09-28T08:31:19Z</time>
      </trkpt>
      <trkpt lat="43.71282" lon="3.84195">
        <ele>99</ele>
        <time>2008-09-28T08:31:23Z</time>
      </trkpt>
      <trkpt lat="43.71283" lon="3.84196">
        <ele>99</ele>
        <time>2008-09-28T08:31:27Z</time>
      </trkpt>
      <trkpt lat="43.71283" lon="3.84198">
        <ele>99</ele>
        <time>2008-09-28T08:31:31Z</time>
      </trkpt>
      <trkpt lat="43.71283" lon="3.84199">
        <ele>99</ele>
        <time>2008-09-28T08:31:35Z</time>
      </trkpt>
      <trkpt lat="43.71283" lon="3.84201">
        <ele>99</ele>
        <time>2008-09-28T08:31:39Z</time>
      </trkpt>
      <trkpt lat="43.71283" lon="3.84204">
        <ele>99</ele>
        <time>2008-09-28T08:31:43Z</time>
      </trkpt>
      <trkpt lat="43.71283" lon="3.84206">
        <ele>99</ele>
        <time>2008-09-28T08:31:47Z</time>
      </trkpt>
      <trkpt lat="43.71283" lon="3.84208">
        <ele>99</ele>
        <time>2008-09-28T08:31:51Z</time>
      </trkpt>
      <trkpt lat="43.71283" lon="3.8421">
        <ele>99</ele>
        <time>2008-09-28T08:31:55Z</time>
      </trkpt>
      <trkpt lat="43.71283" lon="3.84212">
        <ele>99</ele>
        <time>2008-09-28T08:31:59Z</time>
      </trkpt>
      <trkpt lat="43.71282" lon="3.84214">
        <ele>98</ele>
        <time>2008-09-28T08:32:03Z</time>
      </trkpt>
      <trkpt lat="43.71282" lon="3.84216">
        <ele>98</ele>
        <time>2008-09-28T08:32:07Z</time>
      </trkpt>
      <trkpt lat="43.71249" lon="3.84297">
        <ele>94</ele>
        <time>2008-09-28T08:32:11Z</time>
      </trkpt>
      <trkpt lat="43.71243" lon="3.843">
        <ele>94</ele>
        <time>2008-09-28T08:32:15Z</time>
      </trkpt>
      <trkpt lat="43.71239" lon="3.84304">
        <ele>93</ele>
        <time>2008-09-28T08:32:19Z</time>
      </trkpt>
      <trkpt lat="43.71236" lon="3.8431">
        <ele>93</ele>
        <time>2008-09-28T08:32:23Z</time>
      </trkpt>
      <trkpt lat="43.71234" lon="3.84314">
        <ele>93</ele>
        <time>2008-09-28T08:32:27Z</time>
      </trkpt>
      <trkpt lat="43.71233" lon="3.84319">
        <ele>93</ele>
        <time>2008-09-28T08:32:31Z</time>
      </trkpt>
      <trkpt lat="43.71231" lon="3.84322">
        <ele>92</ele>
        <time>2008-09-28T08:32:35Z</time>
      </trkpt>
      <trkpt lat="43.71221" lon="3.84349">
        <ele>91</ele>
        <time>2008-09-28T08:32:39Z</time>
      </trkpt>
      <trkpt lat="43.7122" lon="3.84352">
        <ele>91</ele>
        <time>2008-09-28T08:32:43Z</time>
      </trkpt>
      <trkpt lat="43.71218" lon="3.84355">
        <ele>91</ele>
        <time>2008-09-28T08:32:47Z</time>
      </trkpt>
      <trkpt lat="43.71216" lon="3.84359">
        <ele>91</ele>
        <time>2008-09-28T08:32:51Z</time>
      </trkpt>
      <trkpt lat="43.71213" lon="3.84363">
        <ele>91</ele>
        <time>2008-09-28T08:32:55Z</time>
      </trkpt>
      <trkpt lat="43.71211" lon="3.84367">
        <ele>91</ele>
        <time>2008-09-28T08:32:59Z</time>
      </trkpt>
      <trkpt lat="43.71192" lon="3.84402">
        <ele>90</ele>
        <time>2008-09-28T08:33:03Z</time>
      </trkpt>
      <trkpt lat="43.71189" lon="3.84407">
        <ele>91</ele>
        <time>2008-09-28T08:33:07Z</time>
      </trkpt>
      <trkpt lat="43.71187" lon="3.84411">
        <ele>91</ele>
        <time>2008-09-28T08:33:11Z</time>
      </trkpt>
      <trkpt lat="43.71185" lon="3.84415">
        <ele>91</ele>
        <time>2008-09-28T08:33:15Z</time>
      </trkpt>
      <trkpt lat="43.71183" lon="3.84419">
        <ele>91</ele>
        <time>2008-09-28T08:33:19Z</time>
      </trkpt>
      <trkpt lat="43.71181" lon="3.84423">
        <ele>91</ele>
        <time>2008-09-28T08:33:23Z</time>
      </trkpt>
      <trkpt lat="43.71179" lon="3.84427">
        <ele>90</ele>
        <time>2008-09-28T08:33:27Z</time>
      </trkpt>
      <trkpt lat="43.71178" lon="3.84431">
        <ele>90</ele>
        <time>2008-09-28T08:33:31Z</time>
      </trkpt>
      <trkpt lat="43.71172" lon="3.84475">
        <ele>90</ele>
        <time>2008-09-28T08:33:35Z</time>
      </trkpt>
      <trkpt lat="43.71172" lon="3.84481">
        <ele>90</ele>
        <time>2008-09-28T08:33:39Z</time>
      </trkpt>
      <trkpt lat="43.71173" lon="3.84489">
        <ele>90</ele>
        <time>2008-09-28T08:33:43Z</time>
      </trkpt>
      <trkpt lat="43.71173" lon="3.84496">
        <ele>90</ele>
        <time>2008-09-28T08:33:47Z</time>
      </trkpt>
      <trkpt lat="43.71173" lon="3.84502">
        <ele>90</ele>
        <time>2008-09-28T08:33:51Z</time>
      </trkpt>
      <trkpt lat="43.71174" lon="3.84507">
        <ele>90</ele>
        <time>2008-09-28T08:33:55Z</time>
      </trkpt>
      <trkpt lat="43.71174" lon="3.84512">
        <ele>90</ele>
        <time>2008-09-28T08:33:59Z</time>
      </trkpt>
      <trkpt lat="43.7118" lon="3.84553">
        <ele>90</ele>
        <time>2008-09-28T08:34:03Z</time>
      </trkpt>
      <trkpt lat="43.71182" lon="3.84558">
        <ele>90</ele>
        <time>2008-09-28T08:34:07Z</time>
      </trkpt>
      <trkpt lat="43.71185" lon="3.84562">
        <ele>90</ele>
        <time>2008-09-28T08:34:11Z</time>
      </trkpt>
      <trkpt lat="43.71189" lon="3.84565">
        <ele>90</ele>
        <time>2008-09-28T08:34:15Z</time>
      </trkpt>
      <trkpt lat="43.71192" lon="3.84567">
        <ele>90</ele>
        <time>2008-09-28T08:34:19Z</time>
      </trkpt>
      <trkpt lat="43.71195" lon="3.8457">
        <ele>90</ele>
        <time>2008-09-28T08:34:23Z</time>
      </trkpt>
      <trkpt lat="43.71198" lon="3.84573">
        <ele>90</ele>
        <time>2008-09-28T08:34:27Z</time>
      </trkpt>
      <trkpt lat="43.71201" lon="3.84576">
        <ele>90</ele>
        <time>2008-09-28T08:34:31Z</time>
      </trkpt>
      <trkpt lat="43.71204" lon="3.84578">
        <ele>90</ele>
        <time>2008-09-28T08:34:35Z</time>
      </trkpt>
      <trkpt lat="43.71207" lon="3.8458">
        <ele>90</ele>
        <time>2008-09-28T08:34:39Z</time>
      </trkpt>
      <trkpt lat="43.7121" lon="3.84582">
        <ele>90</ele>
        <time>2008-09-28T08:34:43Z</time>
      </trkpt>
      <trkpt lat="43.71214" lon="3.84584">
        <ele>90</ele>
        <time>2008-09-28T08:34:47Z</time>
      </trkpt>
      <trkpt lat="43.71218" lon="3.84586">
        <ele>90</ele>
        <time>2008-09-28T08:34:51Z</time>
      </trkpt>
      <trkpt lat="43.71285" lon="3.8461">
        <ele>89</ele>
        <time>2008-09-28T08:34:55Z</time>
      </trkpt>
      <trkpt lat="43.7129" lon="3.84615">
        <ele>89</ele>
        <time>2008-09-28T08:34:59Z</time>
      </trkpt>
      <trkpt lat="43.71295" lon="3.8462">
        <ele>89</ele>
        <time>2008-09-28T08:35:03Z</time>
      </trkpt>
      <trkpt lat="43.713" lon="3.84624">
        <ele>89</ele>
        <time>2008-09-28T08:35:07Z</time>
      </trkpt>
      <trkpt lat="43.71304" lon="3.84628">
        <ele>89</ele>
        <time>2008-09-28T08:35:11Z</time>
      </trkpt>
      <trkpt lat="43.71332" lon="3.84648">
        <ele>89</ele>
        <time>2008-09-28T08:35:15Z</time>
      </trkpt>
      <trkpt lat="43.71332" lon="3.84653">
        <ele>88</ele>
        <time>2008-09-28T08:35:19Z</time>
      </trkpt>
      <trkpt lat="43.71331" lon="3.84657">
        <ele>88</ele>
        <time>2008-09-28T08:35:23Z</time>
      </trkpt>
      <trkpt lat="43.71332" lon="3.84659">
        <ele>88</ele>
        <time>2008-09-28T08:35:27Z</time>
      </trkpt>
      <trkpt lat="43.71334" lon="3.8466">
        <ele>88</ele>
        <time>2008-09-28T08:35:31Z</time>
      </trkpt>
      <trkpt lat="43.71337" lon="3.84661">
        <ele>88</ele>
        <time>2008-09-28T08:35:35Z</time>
      </trkpt>
      <trkpt lat="43.71341" lon="3.84661">
        <ele>88</ele>
        <time>2008-09-28T08:35:39Z</time>
      </trkpt>
      <trkpt lat="43.71344" lon="3.84661">
        <ele>88</ele>
        <time>2008-09-28T08:35:43Z</time>
      </trkpt>
      <trkpt lat="43.71348" lon="3.84662">
        <ele>88</ele>
        <time>2008-09-28T08:35:47Z</time>
      </trkpt>
      <trkpt lat="43.71351" lon="3.84662">
        <ele>89</ele>
        <time>2008-09-28T08:35:51Z</time>
      </trkpt>
      <trkpt lat="43.71355" lon="3.84662">
        <ele>89</ele>
        <time>2008-09-28T08:35:55Z</time>
      </trkpt>
      <trkpt lat="43.71359" lon="3.84663">
        <ele>89</ele>
        <time>2008-09-28T08:35:59Z</time>
      </trkpt>
      <trkpt lat="43.71363" lon="3.84663">
        <ele>89</ele>
        <time>2008-09-28T08:36:03Z</time>
      </trkpt>
      <trkpt lat="43.71366" lon="3.84663">
        <ele>89</ele>
        <time>2008-09-28T08:36:07Z</time>
      </trkpt>
      <trkpt lat="43.7137" lon="3.84664">
        <ele>90</ele>
        <time>2008-09-28T08:36:11Z</time>
      </trkpt>
      <trkpt lat="43.71373" lon="3.84664">
        <ele>90</ele>
        <time>2008-09-28T08:36:15Z</time>
      </trkpt>
      <trkpt lat="43.71377" lon="3.84664">
        <ele>90</ele>
        <time>2008-09-28T08:36:19Z</time>
      </trkpt>
      <trkpt lat="43.71442" lon="3.84671">
        <ele>94</ele>
        <time>2008-09-28T08:36:23Z</time>
      </trkpt>
      <trkpt lat="43.71447" lon="3.84671">
        <ele>94</ele>
        <time>2008-09-28T08:36:27Z</time>
      </trkpt>
      <trkpt lat="43.7145" lon="3.84672">
        <ele>94</ele>
        <time>2008-09-28T08:36:31Z</time>
      </trkpt>
      <trkpt lat="43.71453" lon="3.84673">
        <ele>94</ele>
        <time>2008-09-28T08:36:35Z</time>
      </trkpt>
      <trkpt lat="43.71457" lon="3.84673">
        <ele>95</ele>
        <time>2008-09-28T08:36:39Z</time>
      </trkpt>
      <trkpt lat="43.7146" lon="3.84672">
        <ele>95</ele>
        <time>2008-09-28T08:36:43Z</time>
      </trkpt>
      <trkpt lat="43.71464" lon="3.84671">
        <ele>95</ele>
        <time>2008-09-28T08:36:47Z</time>
      </trkpt>
      <trkpt lat="43.71468" lon="3.8467">
        <ele>95</ele>
        <time>2008-09-28T08:36:51Z</time>
      </trkpt>
      <trkpt lat="43.71504" lon="3.84654">
        <ele>96</ele>
        <time>2008-09-28T08:36:55Z</time>
      </trkpt>
      <trkpt lat="43.71506" lon="3.84653">
        <ele>96</ele>
        <time>2008-09-28T08:36:59Z</time>
      </trkpt>
      <trkpt lat="43.71508" lon="3.84653">
        <ele>96</ele>
        <time>2008-09-28T08:37:03Z</time>
      </trkpt>
      <trkpt lat="43.71512" lon="3.84653">
        <ele>96</ele>
        <time>2008-09-28T08:37:07Z</time>
      </trkpt>
      <trkpt lat="43.71517" lon="3.84653">
        <ele>96</ele>
        <time>2008-09-28T08:37:11Z</time>
      </trkpt>
      <trkpt lat="43.71521" lon="3.84653">
        <ele>96</ele>
        <time>2008-09-28T08:37:15Z</time>
      </trkpt>
      <trkpt lat="43.71525" lon="3.84653">
        <ele>96</ele>
        <time>2008-09-28T08:37:19Z</time>
      </trkpt>
      <trkpt lat="43.71528" lon="3.84654">
        <ele>96</ele>
        <time>2008-09-28T08:37:23Z</time>
      </trkpt>
      <trkpt lat="43.71531" lon="3.84655">
        <ele>96</ele>
        <time>2008-09-28T08:37:27Z</time>
      </trkpt>
      <trkpt lat="43.71533" lon="3.84657">
        <ele>96</ele>
        <time>2008-09-28T08:37:31Z</time>
      </trkpt>
      <trkpt lat="43.71535" lon="3.84659">
        <ele>96</ele>
        <time>2008-09-28T08:37:35Z</time>
      </trkpt>
      <trkpt lat="43.71537" lon="3.84661">
        <ele>96</ele>
        <time>2008-09-28T08:37:39Z</time>
      </trkpt>
      <trkpt lat="43.71539" lon="3.84664">
        <ele>96</ele>
        <time>2008-09-28T08:37:43Z</time>
      </trkpt>
      <trkpt lat="43.7154" lon="3.84665">
        <ele>96</ele>
        <time>2008-09-28T08:37:47Z</time>
      </trkpt>
      <trkpt lat="43.71541" lon="3.84667">
        <ele>95</ele>
        <time>2008-09-28T08:37:51Z</time>
      </trkpt>
      <trkpt lat="43.71541" lon="3.84668">
        <ele>95</ele>
        <time>2008-09-28T08:37:55Z</time>
      </trkpt>
      <trkpt lat="43.71542" lon="3.84668">
        <ele>95</ele>
        <time>2008-09-28T08:37:59Z</time>
      </trkpt>
      <trkpt lat="43.71543" lon="3.84668">
        <ele>95</ele>
        <time>2008-09-28T08:38:03Z</time>
      </trkpt>
      <trkpt lat="43.71545" lon="3.84667">
        <ele>95</ele>
        <time>2008-09-28T08:38:07Z</time>
      </trkpt>
      <trkpt lat="43.71546" lon="3.84666">
        <ele>95</ele>
        <time>2008-09-28T08:38:11Z</time>
      </trkpt>
      <trkpt lat="43.71548" lon="3.84664">
        <ele>95</ele>
        <time>2008-09-28T08:38:15Z</time>
      </trkpt>
      <trkpt lat="43.71549" lon="3.84662">
        <ele>95</ele>
        <time>2008-09-28T08:38:19Z</time>
      </trkpt>
      <trkpt lat="43.7155" lon="3.8466">
        <ele>95</ele>
        <time>2008-09-28T08:38:23Z</time>
      </trkpt>
      <trkpt lat="43.71551" lon="3.84658">
        <ele>95</ele>
        <time>2008-09-28T08:38:27Z</time>
      </trkpt>
      <trkpt lat="43.71552" lon="3.84656">
        <ele>95</ele>
        <time>2008-09-28T08:38:31Z</time>
      </trkpt>
      <trkpt lat="43.71553" lon="3.84654">
        <ele>95</ele>
        <time>2008-09-28T08:38:35Z</time>
      </trkpt>
      <trkpt lat="43.71553" lon="3.84651">
        <ele>95</ele>
        <time>2008-09-28T08:38:39Z</time>
      </trkpt>
      <trkpt lat="43.71554" lon="3.84649">
        <ele>95</ele>
        <time>2008-09-28T08:38:43Z</time>
      </trkpt>
      <trkpt lat="43.71554" lon="3.84647">
        <ele>95</ele>
        <time>2008-09-28T08:38:47Z</time>
      </trkpt>
      <trkpt lat="43.71554" lon="3.84645">
        <ele>95</ele>
        <time>2008-09-28T08:38:51Z</time>
      </trkpt>
      <trkpt lat="43.71554" lon="3.84644">
        <ele>95</ele>
        <time>2008-09-28T08:38:55Z</time>
      </trkpt>
      <trkpt lat="43.71554" lon="3.84642">
        <ele>95</ele>
        <time>2008-09-28T08:38:59Z</time>
      </trkpt>
      <trkpt lat="43.71554" lon="3.8464">
        <ele>95</ele>
        <time>2008-09-28T08:39:03Z</time>
      </trkpt>
      <trkpt lat="43.71554" lon="3.84639">
        <ele>95</ele>
        <time>2008-09-28T08:39:07Z</time>
      </trkpt>
      <trkpt lat="43.71553" lon="3.84637">
        <ele>95</ele>
        <time>2008-09-28T08:39:11Z</time>
      </trkpt>
      <trkpt lat="43.71553" lon="3.84635">
        <ele>95</ele>
        <time>2008-09-28T08:39:15Z</time>
      </trkpt>
      <trkpt lat="43.71553" lon="3.84633">
        <ele>95</ele>
        <time>2008-09-28T08:39:19Z</time>
      </trkpt>
      <trkpt lat="43.71552" lon="3.84631">
        <ele>95</ele>
        <time>2008-09-28T08:39:23Z</time>
      </trkpt>
      <trkpt lat="43.71552" lon="3.84629">
        <ele>95</ele>
        <time>2008-09-28T08:39:27Z</time>
      </trkpt>
      <trkpt lat="43.71552" lon="3.84627">
        <ele>95</ele>
        <time>2008-09-28T08:39:31Z</time>
      </trkpt>
      <trkpt lat="43.71551" lon="3.84625">
        <ele>96</ele>
        <time>2008-09-28T08:39:35Z</time>
      </trkpt>
      <trkpt lat="43.71551" lon="3.84623">
        <ele>96</ele>
        <time>2008-09-28T08:39:39Z</time>
      </trkpt>
      <trkpt lat="43.71519" lon="3.84546">
        <ele>99</ele>
        <time>2008-09-28T08:39:43Z</time>
      </trkpt>
      <trkpt lat="43.71515" lon="3.84546">
        <ele>99</ele>
        <time>2008-09-28T08:39:47Z</time>
      </trkpt>
      <trkpt lat="43.71512" lon="3.84546">
        <ele>99</ele>
        <time>2008-09-28T08:39:51Z</time>
      </trkpt>
      <trkpt lat="43.71507" lon="3.84545">
        <ele>99</ele>
        <time>2008-09-28T08:39:55Z</time>
      </trkpt>
      <trkpt lat="43.71503" lon="3.84544">
        <ele>99</ele>
        <time>2008-09-28T08:39:59Z</time>
      </trkpt>
      <trkpt lat="43.715" lon="3.84543">
        <ele>99</ele>
        <time>2008-09-28T08:40:03Z</time>
      </trkpt>
      <trkpt lat="43.71497" lon="3.84542">
        <ele>99</ele>
        <time>2008-09-28T08:40:07Z</time>
      </trkpt>
      <trkpt lat="43.71493" lon="3.84541">
        <ele>99</ele>
        <time>2008-09-28T08:40:11Z</time>
      </trkpt>
      <trkpt lat="43.7149" lon="3.8454">
        <ele>99</ele>
        <time>2008-09-28T08:40:15Z</time>
      </trkpt>
      <trkpt lat="43.71487" lon="3.84538">
        <ele>99</ele>
        <time>2008-09-28T08:40:19Z</time>
      </trkpt>
      <trkpt lat="43.71484" lon="3.84536">
        <ele>99</ele>
        <time>2008-09-28T08:40:23Z</time>
      </trkpt>
      <trkpt lat="43.71481" lon="3.84532">
        <ele>99</ele>
        <time>2008-09-28T08:40:27Z</time>
      </trkpt>
      <trkpt lat="43.71478" lon="3.84529">
        <ele>99</ele>
        <time>2008-09-28T08:40:31Z</time>
      </trkpt>
      <trkpt lat="43.71475" lon="3.84525">
        <ele>100</ele>
        <time>2008-09-28T08:40:35Z</time>
      </trkpt>
      <trkpt lat="43.71425" lon="3.84464">
        <ele>101</ele>
        <time>2008-09-28T08:40:39Z</time>
      </trkpt>
      <trkpt lat="43.71423" lon="3.84459">
        <ele>101</ele>
        <time>2008-09-28T08:40:43Z</time>
      </trkpt>
      <trkpt lat="43.71422" lon="3.84453">
        <ele>102</ele>
        <time>2008-09-28T08:40:47Z</time>
      </trkpt>
      <trkpt lat="43.71423" lon="3.84446">
        <ele>102</ele>
        <time>2008-09-28T08:40:51Z</time>
      </trkpt>
      <trkpt lat="43.71422" lon="3.8444">
        <ele>102</ele>
        <time>2008-09-28T08:40:55Z</time>
      </trkpt>
      <trkpt lat="43.71421" lon="3.84434">
        <ele>102</ele>
        <time>2008-09-28T08:40:59Z</time>
      </trkpt>
      <trkpt lat="43.7142" lon="3.84428">
        <ele>102</ele>
        <time>2008-09-28T08:41:03Z</time>
      </trkpt>
      <trkpt lat="43.71415" lon="3.84385">
        <ele>102</ele>
        <time>2008-09-28T08:41:07Z</time>
      </trkpt>
      <trkpt lat="43.71419" lon="3.8438">
        <ele>102</ele>
        <time>2008-09-28T08:41:11Z</time>
      </trkpt>
      <trkpt lat="43.71421" lon="3.84375">
        <ele>102</ele>
        <time>2008-09-28T08:41:15Z</time>
      </trkpt>
      <trkpt lat="43.71424" lon="3.84371">
        <ele>102</ele>
        <time>2008-09-28T08:41:19Z</time>
      </trkpt>
      <trkpt lat="43.71427" lon="3.84368">
        <ele>102</ele>
        <time>2008-09-28T08:41:23Z</time>
      </trkpt>
      <trkpt lat="43.7143" lon="3.84365">
        <ele>102</ele>
        <time>2008-09-28T08:41:27Z</time>
      </trkpt>
      <trkpt lat="43.71433" lon="3.84361">
        <ele>103</ele>
        <time>2008-09-28T08:41:31Z</time>
      </trkpt>
      <trkpt lat="43.71435" lon="3.84357">
        <ele>103</ele>
        <time>2008-09-28T08:41:35Z</time>
      </trkpt>
      <trkpt lat="43.71437" lon="3.84353">
        <ele>103</ele>
        <time>2008-09-28T08:41:39Z</time>
      </trkpt>
      <trkpt lat="43.71439" lon="3.8435">
        <ele>103</ele>
        <time>2008-09-28T08:41:43Z</time>
      </trkpt>
      <trkpt lat="43.71441" lon="3.84346">
        <ele>103</ele>
        <time>2008-09-28T08:41:47Z</time>
      </trkpt>
      <trkpt lat="43.71443" lon="3.84342">
        <ele>103</ele>
        <time>2008-09-28T08:41:51Z</time>
      </trkpt>
      <trkpt lat="43.71444" lon="3.84337">
        <ele>103</ele>
        <time>2008-09-28T08:41:55Z</time>
      </trkpt>
      <trkpt lat="43.71446" lon="3.84333">
        <ele>103</ele>
        <time>2008-09-28T08:41:59Z</time>
      </trkpt>
      <trkpt lat="43.71466" lon="3.84257">
        <ele>103</ele>
        <time>2008-09-28T08:42:03Z</time>
      </trkpt>
      <trkpt lat="43.71466" lon="3.84249">
        <ele>103</ele>
        <time>2008-09-28T08:42:07Z</time>
      </trkpt>
      <trkpt lat="43.71466" lon="3.84244">
        <ele>103</ele>
        <time>2008-09-28T08:42:11Z</time>
      </trkpt>
      <trkpt lat="43.71466" lon="3.84238">
        <ele>103</ele>
        <time>2008-09-28T08:42:15Z</time>
      </trkpt>
      <trkpt lat="43.71466" lon="3.84233">
        <ele>103</ele>
        <time>2008-09-28T08:42:19Z</time>
      </trkpt>
      <trkpt lat="43.71467" lon="3.84226">
        <ele>103</ele>
        <time>2008-09-28T08:42:23Z</time>
      </trkpt>
      <trkpt lat="43.7147" lon="3.8422">
        <ele>103</ele>
        <time>2008-09-28T08:42:27Z</time>
      </trkpt>
      <trkpt lat="43.71472" lon="3.84214">
        <ele>103</ele>
        <time>2008-09-28T08:42:31Z</time>
      </trkpt>
      <trkpt lat="43.71474" lon="3.84207">
        <ele>103</ele>
        <time>2008-09-28T08:42:35Z</time>
      </trkpt>
      <trkpt lat="43.71476" lon="3.84201">
        <ele>103</ele>
        <time>2008-09-28T08:42:39Z</time>
      </trkpt>
      <trkpt lat="43.71478" lon="3.84194">
        <ele>104</ele>
        <time>2008-09-28T08:42:43Z</time>
      </trkpt>
      <trkpt lat="43.7148" lon="3.84187">
        <ele>104</ele>
        <time>2008-09-28T08:42:47Z</time>
      </trkpt>
      <trkpt lat="43.71481" lon="3.84181">
        <ele>104</ele>
        <time>2008-09-28T08:42:51Z</time>
      </trkpt>
      <trkpt lat="43.71482" lon="3.84176">
        <ele>104</ele>
        <time>2008-09-28T08:42:55Z</time>
      </trkpt>
      <trkpt lat="43.71484" lon="3.84172">
        <ele>104</ele>
        <time>2008-09-28T08:42:59Z</time>
      </trkpt>
      <trkpt lat="43.71485" lon="3.84168">
        <ele>104</ele>
        <time>2008-09-28T08:43:03Z</time>
      </trkpt>
      <trkpt lat="43.71487" lon="3.84165">
        <ele>104</ele>
        <time>2008-09-28T08:43:07Z</time>
      </trkpt>
      <trkpt lat="43.71489" lon="3.84163">
        <ele>104</ele>
        <time>2008-09-28T08:43:11Z</time>
      </trkpt>
      <trkpt lat="43.7149" lon="3.8416">
        <ele>104</ele>
        <time>2008-09-28T08:43:15Z</time>
      </trkpt>
      <trkpt lat="43.71492" lon="3.84159">
        <ele>104</ele>
        <time>2008-09-28T08:43:19Z</time>
      </trkpt>
      <trkpt lat="43.71494" lon="3.84158">
        <ele>104</ele>
        <time>2008-09-28T08:43:23Z</time>
      </trkpt>
      <trkpt lat="43.71496" lon="3.84157">
        <ele>104</ele>
        <time>2008-09-28T08:43:27Z</time>
      </trkpt>
      <trkpt lat="43.71498" lon="3.84157">
        <ele>104</ele>
        <time>2008-09-28T08:43:31Z</time>
      </trkpt>
      <trkpt lat="43.715" lon="3.84157">
        <ele>104</ele>
        <time>2008-09-28T08:43:35Z</time>
      </trkpt>
      <trkpt lat="43.71503" lon="3.84158">
        <ele>104</ele>
        <time>2008-09-28T08:43:39Z</time>
      </trkpt>
      <trkpt lat="43.71568" lon="3.84178">
        <ele>104</ele>
        <time>2008-09-28T08:43:43Z</time>
      </trkpt>
      <trkpt lat="43.71571" lon="3.84182">
        <ele>104</ele>
        <time>2008-09-28T08:43:47Z</time>
      </trkpt>
      <trkpt lat="43.71574" lon="3.84185">
        <ele>104</ele>
        <time>2008-09-28T08:43:51Z</time>
      </trkpt>
      <trkpt lat="43.71577" lon="3.84187">
        <ele>104</ele>
        <time>2008-09-28T08:43:55Z</time>
      </trkpt>
      <trkpt lat="43.7158" lon="3.84188">
        <ele>104</ele>
        <time>2008-09-28T08:43:59Z</time>
      </trkpt>
      <trkpt lat="43.71583" lon="3.84189">
        <ele>104</ele>
        <time>2008-09-28T08:44:03Z</time>
      </trkpt>
      <trkpt lat="43.71586" lon="3.8419">
        <ele>104</ele>
        <time>2008-09-28T08:44:07Z</time>
      </trkpt>
      <trkpt lat="43.71612" lon="3.84191">
        <ele>104</ele>
        <time>2008-09-28T08:44:11Z</time>
      </trkpt>
      <trkpt lat="43.71615" lon="3.8419">
        <ele>104</ele>
        <time>2008-09-28T08:44:15Z</time>
      </trkpt>
      <trkpt lat="43.71618" lon="3.84189">
        <ele>104</ele>
        <time>2008-09-28T08:44:19Z</time>
      </trkpt>
      <trkpt lat="43.71621" lon="3.84189">
        <ele>104</ele>
        <time>2008-09-28T08:44:23Z</time>
      </trkpt>
      <trkpt lat="43.71625" lon="3.84188">
        <ele>104</ele>
        <time>2008-09-28T08:44:27Z</time>
      </trkpt>
      <trkpt lat="43.71629" lon="3.84189">
        <ele>104</ele>
        <time>2008-09-28T08:44:31Z</time>
      </trkpt>
      <trkpt lat="43.71633" lon="3.84189">
        <ele>104</ele>
        <time>2008-09-28T08:44:35Z</time>
      </trkpt>
      <trkpt lat="43.71663" lon="3.84188">
        <ele>103</ele>
        <time>2008-09-28T08:44:39Z</time>
      </trkpt>
      <trkpt lat="43.71666" lon="3.84187">
        <ele>103</ele>
        <time>2008-09-28T08:44:43Z</time>
      </trkpt>
      <trkpt lat="43.71667" lon="3.84185">
        <ele>103</ele>
        <time>2008-09-28T08:44:47Z</time>
      </trkpt>
      <trkpt lat="43.71668" lon="3.84182">
        <ele>103</ele>
        <time>2008-09-28T08:44:51Z</time>
      </trkpt>
      <trkpt lat="43.71669" lon="3.84179">
        <ele>102</ele>
        <time>2008-09-28T08:44:55Z</time>
      </trkpt>
      <trkpt lat="43.71669" lon="3.84176">
        <ele>102</ele>
        <time>2008-09-28T08:44:59Z</time>
      </trkpt>
      <trkpt lat="43.71669" lon="3.84175">
        <ele>102</ele>
        <time>2008-09-28T08:45:03Z</time>
      </trkpt>
      <trkpt lat="43.71668" lon="3.84173">
        <ele>102</ele>
        <time>2008-09-28T08:45:07Z</time>
      </trkpt>
      <trkpt lat="43.71668" lon="3.84172">
        <ele>102</ele>
        <time>2008-09-28T08:45:11Z</time>
      </trkpt>
      <trkpt lat="43.71667" lon="3.84171">
        <ele>101</ele>
        <time>2008-09-28T08:45:15Z</time>
      </trkpt>
      <trkpt lat="43.71667" lon="3.8417">
        <ele>101</ele>
        <time>2008-09-28T08:45:19Z</time>
      </trkpt>
      <trkpt lat="43.71666" lon="3.84168">
        <ele>101</ele>
        <time>2008-09-28T08:45:23Z</time>
      </trkpt>
      <trkpt lat="43.71665" lon="3.84166">
        <ele>101</ele>
        <time>2008-09-28T08:45:27Z</time>
      </trkpt>
      <trkpt lat="43.71665" lon="3.84165">
        <ele>101</ele>
        <time>2008-09-28T08:45:31Z</time>
      </trkpt>
      <trkpt lat="43.71664" lon="3.84163">
        <ele>101</ele>
        <time>2008-09-28T08:45:35Z</time>
      </trkpt>
      <trkpt lat="43.71664" lon="3.84162">
        <ele>101</ele>
        <time>2008-09-28T08:45:39Z</time>
      </trkpt>
      <trkpt lat="43.71664" lon="3.84161">
        <ele>101</ele>
        <time>2008-09-28T08:45:43Z</time>
      </trkpt>
      <trkpt lat="43.71663" lon="3.8416">
        <ele>101</ele>
        <time>2008-09-28T08:45:48Z</time>
      </trkpt>
      <trkpt lat="43.71663" lon="3.84159">
        <ele>101</ele>
        <time>2008-09-28T08:45:52Z</time>
      </trkpt>
      <trkpt lat="43.71663" lon="3.84158">
        <ele>101</ele>
        <time>2008-09-28T08:45:56Z</time>
      </trkpt>
      <trkpt lat="43.71662" lon="3.84158">
        <ele>101</ele>
        <time>2008-09-28T08:46:00Z</time>
      </trkpt>
      <trkpt lat="43.71662" lon="3.84157">
        <ele>101</ele>
        <time>2008-09-28T08:46:04Z</time>
      </trkpt>
      <trkpt lat="43.71662" lon="3.84157">
        <ele>101</ele>
        <time>2008-09-28T08:46:08Z</time>
      </trkpt>
      <trkpt lat="43.71661" lon="3.84157">
        <ele>101</ele>
        <time>2008-09-28T08:46:12Z</time>
      </trkpt>
      <trkpt lat="43.71661" lon="3.84157">
        <ele>101</ele>
        <time>2008-09-28T08:46:16Z</time>
      </trkpt>
      <trkpt lat="43.7166" lon="3.84158">
        <ele>101</ele>
        <time>2008-09-28T08:46:20Z</time>
      </trkpt>
      <trkpt lat="43.7166" lon="3.84158">
        <ele>101</ele>
        <time>2008-09-28T08:46:24Z</time>
      </trkpt>
      <trkpt lat="43.71659" lon="3.84158">
        <ele>101</ele>
        <time>2008-09-28T08:46:28Z</time>
      </trkpt>
      <trkpt lat="43.71659" lon="3.84159">
        <ele>101</ele>
        <time>2008-09-28T08:46:32Z</time>
      </trkpt>
      <trkpt lat="43.71658" lon="3.84159">
        <ele>101</ele>
        <time>2008-09-28T08:46:36Z</time>
      </trkpt>
      <trkpt lat="43.71657" lon="3.8416">
        <ele>101</ele>
        <time>2008-09-28T08:46:40Z</time>
      </trkpt>
      <trkpt lat="43.71656" lon="3.8416">
        <ele>101</ele>
        <time>2008-09-28T08:46:44Z</time>
      </trkpt>
      <trkpt lat="43.71655" lon="3.84161">
        <ele>101</ele>
        <time>2008-09-28T08:46:48Z</time>
      </trkpt>
      <trkpt lat="43.71654" lon="3.84161">
        <ele>101</ele>
        <time>2008-09-28T08:46:52Z</time>
      </trkpt>
      <trkpt lat="43.71653" lon="3.84161">
        <ele>101</ele>
        <time>2008-09-28T08:46:56Z</time>
      </trkpt>
      <trkpt lat="43.71652" lon="3.84162">
        <ele>101</ele>
        <time>2008-09-28T08:47:00Z</time>
      </trkpt>
      <trkpt lat="43.71652" lon="3.84162">
        <ele>102</ele>
        <time>2008-09-28T08:47:04Z</time>
      </trkpt>
      <trkpt lat="43.71651" lon="3.84162">
        <ele>102</ele>
        <time>2008-09-28T08:47:08Z</time>
      </trkpt>
      <trkpt lat="43.7165" lon="3.84161">
        <ele>102</ele>
        <time>2008-09-28T08:47:12Z</time>
      </trkpt>
      <trkpt lat="43.71649" lon="3.84161">
        <ele>102</ele>
        <time>2008-09-28T08:47:16Z</time>
      </trkpt>
      <trkpt lat="43.71648" lon="3.84161">
        <ele>102</ele>
        <time>2008-09-28T08:47:20Z</time>
      </trkpt>
      <trkpt lat="43.71647" lon="3.8416">
        <ele>102</ele>
        <time>2008-09-28T08:47:24Z</time>
      </trkpt>
      <trkpt lat="43.71646" lon="3.84159">
        <ele>102</ele>
        <time>2008-09-28T08:47:28Z</time>
      </trkpt>
      <trkpt lat="43.71646" lon="3.84159">
        <ele>102</ele>
        <time>2008-09-28T08:47:32Z</time>
      </trkpt>
      <trkpt lat="43.71645" lon="3.84158">
        <ele>102</ele>
        <time>2008-09-28T08:47:36Z</time>
      </trkpt>
      <trkpt lat="43.71644" lon="3.84157">
        <ele>102</ele>
        <time>2008-09-28T08:47:40Z</time>
      </trkpt>
      <trkpt lat="43.71643" lon="3.84156">
        <ele>103</ele>
        <time>2008-09-28T08:47:44Z</time>
      </trkpt>
      <trkpt lat="43.71643" lon="3.84154">
        <ele>103</ele>
        <time>2008-09-28T08:47:48Z</time>
      </trkpt>
      <trkpt lat="43.71642" lon="3.84153">
        <ele>103</ele>
        <time>2008-09-28T08:47:52Z</time>
      </trkpt>
      <trkpt lat="43.71642" lon="3.84152">
        <ele>103</ele>
        <time>2008-09-28T08:47:56Z</time>
      </trkpt>
      <trkpt lat="43.71641" lon="3.8415">
        <ele>103</ele>
        <time>2008-09-28T08:48:00Z</time>
      </trkpt>
      <trkpt lat="43.71641" lon="3.84149">
        <ele>103</ele>
        <time>2008-09-28T08:48:04Z</time>
      </trkpt>
      <trkpt lat="43.71616" lon="3.84067">
        <ele>111</ele>
        <time>2008-09-28T08:48:08Z</time>
      </trkpt>
      <trkpt lat="43.71617" lon="3.84065">
        <ele>111</ele>
        <time>2008-09-28T08:48:12Z</time>
      </trkpt>
      <trkpt lat="43.71618" lon="3.84065">
        <ele>111</ele>
        <time>2008-09-28T08:48:16Z</time>
      </trkpt>
      <trkpt lat="43.71619" lon="3.84064">
        <ele>111</ele>
        <time>2008-09-28T08:48:20Z</time>
      </trkpt>
      <trkpt lat="43.7162" lon="3.84065">
        <ele>111</ele>
        <time>2008-09-28T08:48:24Z</time>
      </trkpt>
      <trkpt lat="43.7162" lon="3.84066">
        <ele>112</ele>
        <time>2008-09-28T08:48:28Z</time>
      </trkpt>
      <trkpt lat="43.71619" lon="3.84067">
        <ele>112</ele>
        <time>2008-09-28T08:48:32Z</time>
      </trkpt>
      <trkpt lat="43.71618" lon="3.84066">
        <ele>112</ele>
        <time>2008-09-28T08:48:36Z</time>
      </trkpt>
      <trkpt lat="43.71617" lon="3.84066">
        <ele>112</ele>
        <time>2008-09-28T08:48:40Z</time>
      </trkpt>
      <trkpt lat="43.71615" lon="3.84064">
        <ele>112</ele>
        <time>2008-09-28T08:48:44Z</time>
      </trkpt>
      <trkpt lat="43.71614" lon="3.84063">
        <ele>112</ele>
        <time>2008-09-28T08:48:48Z</time>
      </trkpt>
      <trkpt lat="43.71613" lon="3.8406">
        <ele>112</ele>
        <time>2008-09-28T08:48:52Z</time>
      </trkpt>
      <trkpt lat="43.71612" lon="3.84058">
        <ele>112</ele>
        <time>2008-09-28T08:48:56Z</time>
      </trkpt>
      <trkpt lat="43.71612" lon="3.84055">
        <ele>113</ele>
        <time>2008-09-28T08:49:00Z</time>
      </trkpt>
      <trkpt lat="43.71611" lon="3.84052">
        <ele>113</ele>
        <time>2008-09-28T08:49:04Z</time>
      </trkpt>
      <trkpt lat="43.71611" lon="3.84049">
        <ele>113</ele>
        <time>2008-09-28T08:49:08Z</time>
      </trkpt>
      <trkpt lat="43.7161" lon="3.84046">
        <ele>113</ele>
        <time>2008-09-28T08:49:12Z</time>
      </trkpt>
      <trkpt lat="43.71609" lon="3.84043">
        <ele>113</ele>
        <time>2008-09-28T08:49:16Z</time>
      </trkpt>
      <trkpt lat="43.71607" lon="3.84039">
        <ele>114</ele>
        <time>2008-09-28T08:49:20Z</time>
      </trkpt>
      <trkpt lat="43.71606" lon="3.84036">
        <ele>114</ele>
        <time>2008-09-28T08:49:24Z</time>
      </trkpt>
      <trkpt lat="43.71605" lon="3.84032">
        <ele>114</ele>
        <time>2008-09-28T08:49:28Z</time>
      </trkpt>
      <trkpt lat="43.71604" lon="3.84029">
        <ele>114</ele>
        <time>2008-09-28T08:49:32Z</time>
      </trkpt>
      <trkpt lat="43.71603" lon="3.84025">
        <ele>114</ele>
        <time>2008-09-28T08:49:36Z</time>
      </trkpt>
      <trkpt lat="43.71585" lon="3.83935">
        <ele>118</ele>
        <time>2008-09-28T08:49:40Z</time>
      </trkpt>
      <trkpt lat="43.71581" lon="3.83931">
        <ele>118</ele>
        <time>2008-09-28T08:49:44Z</time>
      </trkpt>
      <trkpt lat="43.7158" lon="3.83926">
        <ele>118</ele>
        <time>2008-09-28T08:49:48Z</time>
      </trkpt>
      <trkpt lat="43.71579" lon="3.83921">
        <ele>118</ele>
        <time>2008-09-28T08:49:52Z</time>
      </trkpt>
      <trkpt lat="43.71579" lon="3.83916">
        <ele>117</ele>
        <time>2008-09-28T08:49:56Z</time>
      </trkpt>
      <trkpt lat="43.71579" lon="3.83912">
        <ele>117</ele>
        <time>2008-09-28T08:50:00Z</time>
      </trkpt>
      <trkpt lat="43.7158" lon="3.83907">
        <ele>117</ele>
        <time>2008-09-28T08:50:04Z</time>
      </trkpt>
      <trkpt lat="43.71588" lon="3.83867">
        <ele>114</ele>
        <time>2008-09-28T08:50:08Z</time>
      </trkpt>
      <trkpt lat="43.71588" lon="3.83861">
        <ele>114</ele>
        <time>2008-09-28T08:50:12Z</time>
      </trkpt>
      <trkpt lat="43.71588" lon="3.83857">
        <ele>113</ele>
        <time>2008-09-28T08:50:16Z</time>
      </trkpt>
      <trkpt lat="43.71587" lon="3.83851">
        <ele>113</ele>
        <time>2008-09-28T08:50:20Z</time>
      </trkpt>
      <trkpt lat="43.71585" lon="3.83845">
        <ele>113</ele>
        <time>2008-09-28T08:50:24Z</time>
      </trkpt>
      <trkpt lat="43.71584" lon="3.8384">
        <ele>113</ele>
        <time>2008-09-28T08:50:28Z</time>
      </trkpt>
      <trkpt lat="43.71582" lon="3.83835">
        <ele>113</ele>
        <time>2008-09-28T08:50:32Z</time>
      </trkpt>
      <trkpt lat="43.71572" lon="3.838">
        <ele>112</ele>
        <time>2008-09-28T08:50:36Z</time>
      </trkpt>
      <trkpt lat="43.71569" lon="3.83796">
        <ele>112</ele>
        <time>2008-09-28T08:50:40Z</time>
      </trkpt>
      <trkpt lat="43.71567" lon="3.83791">
        <ele>112</ele>
        <time>2008-09-28T08:50:44Z</time>
      </trkpt>
      <trkpt lat="43.71564" lon="3.83785">
        <ele>112</ele>
        <time>2008-09-28T08:50:48Z</time>
      </trkpt>
      <trkpt lat="43.71562" lon="3.8378">
        <ele>112</ele>
        <time>2008-09-28T08:50:52Z</time>
      </trkpt>
      <trkpt lat="43.71561" lon="3.83775">
        <ele>111</ele>
        <time>2008-09-28T08:50:56Z</time>
      </trkpt>
      <trkpt lat="43.71548" lon="3.83737">
        <ele>110</ele>
        <time>2008-09-28T08:51:00Z</time>
      </trkpt>
      <trkpt lat="43.71546" lon="3.83732">
        <ele>110</ele>
        <time>2008-09-28T08:51:04Z</time>
      </trkpt>
      <trkpt lat="43.71545" lon="3.83728">
        <ele>110</ele>
        <time>2008-09-28T08:51:08Z</time>
      </trkpt>
      <trkpt lat="43.71545" lon="3.83725">
        <ele>110</ele>
        <time>2008-09-28T08:51:12Z</time>
      </trkpt>
      <trkpt lat="43.71547" lon="3.83723">
        <ele>110</ele>
        <time>2008-09-28T08:51:16Z</time>
      </trkpt>
      <trkpt lat="43.71548" lon="3.83722">
        <ele>110</ele>
        <time>2008-09-28T08:51:20Z</time>
      </trkpt>
      <trkpt lat="43.71549" lon="3.83722">
        <ele>110</ele>
        <time>2008-09-28T08:51:24Z</time>
      </trkpt>
      <trkpt lat="43.7155" lon="3.83721">
        <ele>110</ele>
        <time>2008-09-28T08:51:28Z</time>
      </trkpt>
      <trkpt lat="43.7155" lon="3.8372">
        <ele>110</ele>
        <time>2008-09-28T08:51:32Z</time>
      </trkpt>
      <trkpt lat="43.7155" lon="3.83719">
        <ele>110</ele>
        <time>2008-09-28T08:51:36Z</time>
      </trkpt>
      <trkpt lat="43.71549" lon="3.83717">
        <ele>110</ele>
        <time>2008-09-28T08:51:40Z</time>
      </trkpt>
      <trkpt lat="43.71548" lon="3.83716">
        <ele>110</ele>
        <time>2008-09-28T08:51:44Z</time>
      </trkpt>
      <trkpt lat="43.71546" lon="3.83714">
        <ele>110</ele>
        <time>2008-09-28T08:51:48Z</time>
      </trkpt>
      <trkpt lat="43.71545" lon="3.83713">
        <ele>110</ele>
        <time>2008-09-28T08:51:52Z</time>
      </trkpt>
      <trkpt lat="43.71543" lon="3.83712">
        <ele>110</ele>
        <time>2008-09-28T08:51:56Z</time>
      </trkpt>
      <trkpt lat="43.71541" lon="3.8371">
        <ele>110</ele>
        <time>2008-09-28T08:52:00Z</time>
      </trkpt>
      <trkpt lat="43.71539" lon="3.83708">
        <ele>110</ele>
        <time>2008-09-28T08:52:04Z</time>
      </trkpt>
      <trkpt lat="43.71537" lon="3.83706">
        <ele>110</ele>
        <time>2008-09-28T08:52:08Z</time>
      </trkpt>
      <trkpt lat="43.71536" lon="3.83704">
        <ele>110</ele>
        <time>2008-09-28T08:52:12Z</time>
      </trkpt>
      <trkpt lat="43.71535" lon="3.83701">
        <ele>110</ele>
        <time>2008-09-28T08:52:16Z</time>
      </trkpt>
      <trkpt lat="43.71535" lon="3.83699">
        <ele>110</ele>
        <time>2008-09-28T08:52:20Z</time>
      </trkpt>
      <trkpt lat="43.71535" lon="3.83696">
        <ele>110</ele>
        <time>2008-09-28T08:52:24Z</time>
      </trkpt>
      <trkpt lat="43.71536" lon="3.83626">
        <ele>109</ele>
        <time>2008-09-28T08:52:28Z</time>
      </trkpt>
      <trkpt lat="43.71538" lon="3.83622">
        <ele>109</ele>
        <time>2008-09-28T08:52:32Z</time>
      </trkpt>
      <trkpt lat="43.71543" lon="3.8362">
        <ele>109</ele>
        <time>2008-09-28T08:52:36Z</time>
      </trkpt>
      <trkpt lat="43.71547" lon="3.8362">
        <ele>109</ele>
        <time>2008-09-28T08:52:40Z</time>
      </trkpt>
      <trkpt lat="43.71551" lon="3.83622">
        <ele>109</ele>
        <time>2008-09-28T08:52:44Z</time>
      </trkpt>
      <trkpt lat="43.71554" lon="3.83624">
        <ele>109</ele>
        <time>2008-09-28T08:52:48Z</time>
      </trkpt>
      <trkpt lat="43.71557" lon="3.83627">
        <ele>109</ele>
        <time>2008-09-28T08:52:52Z</time>
      </trkpt>
      <trkpt lat="43.7156" lon="3.83629">
        <ele>108</ele>
        <time>2008-09-28T08:52:56Z</time>
      </trkpt>
      <trkpt lat="43.71563" lon="3.83631">
        <ele>108</ele>
        <time>2008-09-28T08:53:00Z</time>
      </trkpt>
      <trkpt lat="43.71566" lon="3.83633">
        <ele>108</ele>
        <time>2008-09-28T08:53:04Z</time>
      </trkpt>
      <trkpt lat="43.71569" lon="3.83636">
        <ele>108</ele>
        <time>2008-09-28T08:53:08Z</time>
      </trkpt>
      <trkpt lat="43.71572" lon="3.83639">
        <ele>108</ele>
        <time>2008-09-28T08:53:12Z</time>
      </trkpt>
      <trkpt lat="43.71576" lon="3.83642">
        <ele>107</ele>
        <time>2008-09-28T08:53:16Z</time>
      </trkpt>
      <trkpt lat="43.71633" lon="3.83677">
        <ele>104</ele>
        <time>2008-09-28T08:53:20Z</time>
      </trkpt>
      <trkpt lat="43.71639" lon="3.83679">
        <ele>104</ele>
        <time>2008-09-28T08:53:24Z</time>
      </trkpt>
      <trkpt lat="43.71642" lon="3.83678">
        <ele>104</ele>
        <time>2008-09-28T08:53:28Z</time>
      </trkpt>
      <trkpt lat="43.71644" lon="3.83677">
        <ele>104</ele>
        <time>2008-09-28T08:53:32Z</time>
      </trkpt>
      <trkpt lat="43.71647" lon="3.83676">
        <ele>104</ele>
        <time>2008-09-28T08:53:36Z</time>
      </trkpt>
      <trkpt lat="43.7165" lon="3.83673">
        <ele>104</ele>
        <time>2008-09-28T08:53:40Z</time>
      </trkpt>
      <trkpt lat="43.71652" lon="3.83669">
        <ele>104</ele>
        <time>2008-09-28T08:53:44Z</time>
      </trkpt>
      <trkpt lat="43.71666" lon="3.83626">
        <ele>105</ele>
        <time>2008-09-28T08:53:48Z</time>
      </trkpt>
      <trkpt lat="43.71664" lon="3.83616">
        <ele>105</ele>
        <time>2008-09-28T08:53:52Z</time>
      </trkpt>
      <trkpt lat="43.71662" lon="3.83611">
        <ele>105</ele>
        <time>2008-09-28T08:53:56Z</time>
      </trkpt>
      <trkpt lat="43.7166" lon="3.83607">
        <ele>105</ele>
        <time>2008-09-28T08:54:00Z</time>
      </trkpt>
      <trkpt lat="43.71658" lon="3.83604">
        <ele>105</ele>
        <time>2008-09-28T08:54:04Z</time>
      </trkpt>
      <trkpt lat="43.71656" lon="3.836">
        <ele>105</ele>
        <time>2008-09-28T08:54:08Z</time>
      </trkpt>
      <trkpt lat="43.71654" lon="3.83596">
        <ele>105</ele>
        <time>2008-09-28T08:54:12Z</time>
      </trkpt>
      <trkpt lat="43.71649" lon="3.83563">
        <ele>106</ele>
        <time>2008-09-28T08:54:16Z</time>
      </trkpt>
      <trkpt lat="43.71654" lon="3.83559">
        <ele>106</ele>
        <time>2008-09-28T08:54:20Z</time>
      </trkpt>
      <trkpt lat="43.71658" lon="3.83556">
        <ele>106</ele>
        <time>2008-09-28T08:54:24Z</time>
      </trkpt>
      <trkpt lat="43.71661" lon="3.83553">
        <ele>106</ele>
        <time>2008-09-28T08:54:28Z</time>
      </trkpt>
      <trkpt lat="43.71664" lon="3.8355">
        <ele>106</ele>
        <time>2008-09-28T08:54:32Z</time>
      </trkpt>
      <trkpt lat="43.71665" lon="3.83546">
        <ele>105</ele>
        <time>2008-09-28T08:54:36Z</time>
      </trkpt>
      <trkpt lat="43.71666" lon="3.83542">
        <ele>105</ele>
        <time>2008-09-28T08:54:40Z</time>
      </trkpt>
      <trkpt lat="43.71667" lon="3.83538">
        <ele>105</ele>
        <time>2008-09-28T08:54:44Z</time>
      </trkpt>
      <trkpt lat="43.71669" lon="3.83534">
        <ele>105</ele>
        <time>2008-09-28T08:54:48Z</time>
      </trkpt>
      <trkpt lat="43.7167" lon="3.83531">
        <ele>105</ele>
        <time>2008-09-28T08:54:52Z</time>
      </trkpt>
      <trkpt lat="43.71672" lon="3.83528">
        <ele>105</ele>
        <time>2008-09-28T08:54:56Z</time>
      </trkpt>
      <trkpt lat="43.71674" lon="3.83526">
        <ele>105</ele>
        <time>2008-09-28T08:55:00Z</time>
      </trkpt>
      <trkpt lat="43.71677" lon="3.83525">
        <ele>105</ele>
        <time>2008-09-28T08:55:04Z</time>
      </trkpt>
      <trkpt lat="43.71679" lon="3.83525">
        <ele>105</ele>
        <time>2008-09-28T08:55:08Z</time>
      </trkpt>
      <trkpt lat="43.71682" lon="3.83525">
        <ele>105</ele>
        <time>2008-09-28T08:55:12Z</time>
      </trkpt>
      <trkpt lat="43.71684" lon="3.83526">
        <ele>105</ele>
        <time>2008-09-28T08:55:16Z</time>
      </trkpt>
      <trkpt lat="43.71687" lon="3.83526">
        <ele>105</ele>
        <time>2008-09-28T08:55:20Z</time>
      </trkpt>
      <trkpt lat="43.7169" lon="3.83527">
        <ele>105</ele>
        <time>2008-09-28T08:55:24Z</time>
      </trkpt>
      <trkpt lat="43.71692" lon="3.83528">
        <ele>105</ele>
        <time>2008-09-28T08:55:28Z</time>
      </trkpt>
      <trkpt lat="43.71696" lon="3.83528">
        <ele>105</ele>
        <time>2008-09-28T08:55:32Z</time>
      </trkpt>
      <trkpt lat="43.71699" lon="3.83529">
        <ele>105</ele>
        <time>2008-09-28T08:55:36Z</time>
      </trkpt>
      <trkpt lat="43.71701" lon="3.83529">
        <ele>105</ele>
        <time>2008-09-28T08:55:40Z</time>
      </trkpt>
      <trkpt lat="43.71704" lon="3.83529">
        <ele>105</ele>
        <time>2008-09-28T08:55:44Z</time>
      </trkpt>
      <trkpt lat="43.71706" lon="3.83529">
        <ele>105</ele>
        <time>2008-09-28T08:55:48Z</time>
      </trkpt>
      <trkpt lat="43.71708" lon="3.8353">
        <ele>105</ele>
        <time>2008-09-28T08:55:52Z</time>
      </trkpt>
      <trkpt lat="43.7171" lon="3.83531">
        <ele>105</ele>
        <time>2008-09-28T08:55:56Z</time>
      </trkpt>
      <trkpt lat="43.71711" lon="3.83532">
        <ele>104</ele>
        <time>2008-09-28T08:56:00Z</time>
      </trkpt>
      <trkpt lat="43.71713" lon="3.83534">
        <ele>104</ele>
        <time>2008-09-28T08:56:04Z</time>
      </trkpt>
      <trkpt lat="43.71715" lon="3.83536">
        <ele>104</ele>
        <time>2008-09-28T08:56:08Z</time>
      </trkpt>
      <trkpt lat="43.71716" lon="3.83537">
        <ele>104</ele>
        <time>2008-09-28T08:56:12Z</time>
      </trkpt>
      <trkpt lat="43.71768" lon="3.83598">
        <ele>103</ele>
        <time>2008-09-28T08:56:16Z</time>
      </trkpt>
      <trkpt lat="43.71771" lon="3.83604">
        <ele>103</ele>
        <time>2008-09-28T08:56:20Z</time>
      </trkpt>
      <trkpt lat="43.71774" lon="3.83609">
        <ele>102</ele>
        <time>2008-09-28T08:56:24Z</time>
      </trkpt>
      <trkpt lat="43.71777" lon="3.83615">
        <ele>102</ele>
        <time>2008-09-28T08:56:28Z</time>
      </trkpt>
      <trkpt lat="43.7178" lon="3.83621">
        <ele>102</ele>
        <time>2008-09-28T08:56:32Z</time>
      </trkpt>
      <trkpt lat="43.71783" lon="3.83627">
        <ele>102</ele>
        <time>2008-09-28T08:56:36Z</time>
      </trkpt>
      <trkpt lat="43.71794" lon="3.83673">
        <ele>101</ele>
        <time>2008-09-28T08:56:40Z</time>
      </trkpt>
      <trkpt lat="43.71794" lon="3.83678">
        <ele>101</ele>
        <time>2008-09-28T08:56:44Z</time>
      </trkpt>
      <trkpt lat="43.71796" lon="3.83682">
        <ele>101</ele>
        <time>2008-09-28T08:56:48Z</time>
      </trkpt>
      <trkpt lat="43.71798" lon="3.83686">
        <ele>101</ele>
        <time>2008-09-28T08:56:52Z</time>
      </trkpt>
      <trkpt lat="43.71802" lon="3.83689">
        <ele>101</ele>
        <time>2008-09-28T08:56:56Z</time>
      </trkpt>
      <trkpt lat="43.71806" lon="3.83691">
        <ele>101</ele>
        <time>2008-09-28T08:57:00Z</time>
      </trkpt>
      <trkpt lat="43.7181" lon="3.83691">
        <ele>101</ele>
        <time>2008-09-28T08:57:04Z</time>
      </trkpt>
      <trkpt lat="43.71813" lon="3.8369">
        <ele>101</ele>
        <time>2008-09-28T08:57:08Z</time>
      </trkpt>
      <trkpt lat="43.71817" lon="3.83688">
        <ele>102</ele>
        <time>2008-09-28T08:57:12Z</time>
      </trkpt>
      <trkpt lat="43.7182" lon="3.83685">
        <ele>102</ele>
        <time>2008-09-28T08:57:16Z</time>
      </trkpt>
      <trkpt lat="43.71823" lon="3.83683">
        <ele>102</ele>
        <time>2008-09-28T08:57:20Z</time>
      </trkpt>
      <trkpt lat="43.71827" lon="3.83681">
        <ele>102</ele>
        <time>2008-09-28T08:57:24Z</time>
      </trkpt>
      <trkpt lat="43.7183" lon="3.83679">
        <ele>102</ele>
        <time>2008-09-28T08:57:28Z</time>
      </trkpt>
      <trkpt lat="43.71832" lon="3.83677">
        <ele>102</ele>
        <time>2008-09-28T08:57:32Z</time>
      </trkpt>
      <trkpt lat="43.71835" lon="3.83675">
        <ele>102</ele>
        <time>2008-09-28T08:57:36Z</time>
      </trkpt>
      <trkpt lat="43.71838" lon="3.83674">
        <ele>103</ele>
        <time>2008-09-28T08:57:40Z</time>
      </trkpt>
      <trkpt lat="43.71841" lon="3.83674">
        <ele>103</ele>
        <time>2008-09-28T08:57:44Z</time>
      </trkpt>
      <trkpt lat="43.71844" lon="3.83675">
        <ele>103</ele>
        <time>2008-09-28T08:57:48Z</time>
      </trkpt>
      <trkpt lat="43.71846" lon="3.83676">
        <ele>103</ele>
        <time>2008-09-28T08:57:52Z</time>
      </trkpt>
      <trkpt lat="43.71849" lon="3.83677">
        <ele>103</ele>
        <time>2008-09-28T08:57:56Z</time>
      </trkpt>
      <trkpt lat="43.71852" lon="3.83678">
        <ele>103</ele>
        <time>2008-09-28T08:58:00Z</time>
      </trkpt>
      <trkpt lat="43.71855" lon="3.8368">
        <ele>103</ele>
        <time>2008-09-28T08:58:04Z</time>
      </trkpt>
      <trkpt lat="43.7191" lon="3.83727">
        <ele>103</ele>
        <time>2008-09-28T08:58:08Z</time>
      </trkpt>
      <trkpt lat="43.71911" lon="3.83731">
        <ele>103</ele>
        <time>2008-09-28T08:58:12Z</time>
      </trkpt>
      <trkpt lat="43.71911" lon="3.83736">
        <ele>103</ele>
        <time>2008-09-28T08:58:16Z</time>
      </trkpt>
      <trkpt lat="43.7191" lon="3.83741">
        <ele>103</ele>
        <time>2008-09-28T08:58:20Z</time>
      </trkpt>
      <trkpt lat="43.71909" lon="3.83746">
        <ele>103</ele>
        <time>2008-09-28T08:58:24Z</time>
      </trkpt>
      <trkpt lat="43.71907" lon="3.83751">
        <ele>103</ele>
        <time>2008-09-28T08:58:28Z</time>
      </trkpt>
      <trkpt lat="43.71906" lon="3.83755">
        <ele>103</ele>
        <time>2008-09-28T08:58:32Z</time>
      </trkpt>
      <trkpt lat="43.71903" lon="3.83791">
        <ele>102</ele>
        <time>2008-09-28T08:58:36Z</time>
      </trkpt>
      <trkpt lat="43.71903" lon="3.83799">
        <ele>102</ele>
        <time>2008-09-28T08:58:40Z</time>
      </trkpt>
      <trkpt lat="43.71904" lon="3.83806">
        <ele>102</ele>
        <time>2008-09-28T08:58:44Z</time>
      </trkpt>
      <trkpt lat="43.71905" lon="3.83812">
        <ele>102</ele>
        <time>2008-09-28T08:58:48Z</time>
      </trkpt>
      <trkpt lat="43.71906" lon="3.83817">
        <ele>102</ele>
        <time>2008-09-28T08:58:52Z</time>
      </trkpt>
      <trkpt lat="43.71908" lon="3.83821">
        <ele>101</ele>
        <time>2008-09-28T08:58:56Z</time>
      </trkpt>
      <trkpt lat="43.71909" lon="3.83825">
        <ele>101</ele>
        <time>2008-09-28T08:59:00Z</time>
      </trkpt>
      <trkpt lat="43.71909" lon="3.83828">
        <ele>101</ele>
        <time>2008-09-28T08:59:04Z</time>
      </trkpt>
      <trkpt lat="43.71915" lon="3.83859">
        <ele>101</ele>
        <time>2008-09-28T08:59:08Z</time>
      </trkpt>
      <trkpt lat="43.71915" lon="3.8386">
        <ele>101</ele>
        <time>2008-09-28T08:59:12Z</time>
      </trkpt>
      <trkpt lat="43.71915" lon="3.83861">
        <ele>101</ele>
        <time>2008-09-28T08:59:16Z</time>
      </trkpt>
      <trkpt lat="43.71914" lon="3.83862">
        <ele>102</ele>
        <time>2008-09-28T08:59:20Z</time>
      </trkpt>
      <trkpt lat="43.71913" lon="3.83863">
        <ele>102</ele>
        <time>2008-09-28T08:59:24Z</time>
      </trkpt>
      <trkpt lat="43.71912" lon="3.83865">
        <ele>102</ele>
        <time>2008-09-28T08:59:28Z</time>
      </trkpt>
      <trkpt lat="43.71912" lon="3.83867">
        <ele>102</ele>
        <time>2008-09-28T08:59:32Z</time>
      </trkpt>
      <trkpt lat="43.71911" lon="3.83869">
        <ele>102</ele>
        <time>2008-09-28T08:59:36Z</time>
      </trkpt>
      <trkpt lat="43.7191" lon="3.83871">
        <ele>102</ele>
        <time>2008-09-28T08:59:40Z</time>
      </trkpt>
      <trkpt lat="43.71909" lon="3.83873">
        <ele>102</ele>
        <time>2008-09-28T08:59:44Z</time>
      </trkpt>
      <trkpt lat="43.71908" lon="3.83875">
        <ele>102</ele>
        <time>2008-09-28T08:59:48Z</time>
      </trkpt>
      <trkpt lat="43.71907" lon="3.83876">
        <ele>102</ele>
        <time>2008-09-28T08:59:52Z</time>
      </trkpt>
      <trkpt lat="43.71906" lon="3.83878">
        <ele>102</ele>
        <time>2008-09-28T08:59:56Z</time>
      </trkpt>
      <trkpt lat="43.71904" lon="3.8388">
        <ele>102</ele>
        <time>2008-09-28T09:00:00Z</time>
      </trkpt>
      <trkpt lat="43.71903" lon="3.83883">
        <ele>102</ele>
        <time>2008-09-28T09:00:04Z</time>
      </trkpt>
      <trkpt lat="43.71902" lon="3.83885">
        <ele>102</ele>
        <time>2008-09-28T09:00:08Z</time>
      </trkpt>
      <trkpt lat="43.719" lon="3.83888">
        <ele>102</ele>
        <time>2008-09-28T09:00:12Z</time>
      </trkpt>
      <trkpt lat="43.71899" lon="3.8389">
        <ele>102</ele>
        <time>2008-09-28T09:00:16Z</time>
      </trkpt>
      <trkpt lat="43.71897" lon="3.83893">
        <ele>102</ele>
        <time>2008-09-28T09:00:20Z</time>
      </trkpt>
      <trkpt lat="43.71896" lon="3.83895">
        <ele>102</ele>
        <time>2008-09-28T09:00:24Z</time>
      </trkpt>
      <trkpt lat="43.71894" lon="3.83897">
        <ele>102</ele>
        <time>2008-09-28T09:00:28Z</time>
      </trkpt>
      <trkpt lat="43.71893" lon="3.839">
        <ele>102</ele>
        <time>2008-09-28T09:00:32Z</time>
      </trkpt>
      <trkpt lat="43.71891" lon="3.83902">
        <ele>102</ele>
        <time>2008-09-28T09:00:36Z</time>
      </trkpt>
      <trkpt lat="43.7189" lon="3.83905">
        <ele>102</ele>
        <time>2008-09-28T09:00:40Z</time>
      </trkpt>
      <trkpt lat="43.71888" lon="3.83907">
        <ele>102</ele>
        <time>2008-09-28T09:00:44Z</time>
      </trkpt>
      <trkpt lat="43.71887" lon="3.83909">
        <ele>102</ele>
        <time>2008-09-28T09:00:48Z</time>
      </trkpt>
      <trkpt lat="43.71885" lon="3.83911">
        <ele>101</ele>
        <time>2008-09-28T09:00:52Z</time>
      </trkpt>
      <trkpt lat="43.71884" lon="3.83913">
        <ele>101</ele>
        <time>2008-09-28T09:00:56Z</time>
      </trkpt>
      <trkpt lat="43.71883" lon="3.83915">
        <ele>101</ele>
        <time>2008-09-28T09:01:00Z</time>
      </trkpt>
      <trkpt lat="43.71882" lon="3.83916">
        <ele>101</ele>
        <time>2008-09-28T09:01:04Z</time>
      </trkpt>
      <trkpt lat="43.71881" lon="3.83918">
        <ele>101</ele>
        <time>2008-09-28T09:01:08Z</time>
      </trkpt>
      <trkpt lat="43.7188" lon="3.83919">
        <ele>101</ele>
        <time>2008-09-28T09:01:12Z</time>
      </trkpt>
      <trkpt lat="43.71879" lon="3.8392">
        <ele>101</ele>
        <time>2008-09-28T09:01:16Z</time>
      </trkpt>
      <trkpt lat="43.71878" lon="3.83922">
        <ele>101</ele>
        <time>2008-09-28T09:01:20Z</time>
      </trkpt>
      <trkpt lat="43.71877" lon="3.83923">
        <ele>101</ele>
        <time>2008-09-28T09:01:24Z</time>
      </trkpt>
      <trkpt lat="43.71876" lon="3.83924">
        <ele>101</ele>
        <time>2008-09-28T09:01:28Z</time>
      </trkpt>
      <trkpt lat="43.71876" lon="3.83925">
        <ele>101</ele>
        <time>2008-09-28T09:01:32Z</time>
      </trkpt>
      <trkpt lat="43.71875" lon="3.83925">
        <ele>101</ele>
        <time>2008-09-28T09:01:36Z</time>
      </trkpt>
      <trkpt lat="43.71874" lon="3.83926">
        <ele>101</ele>
        <time>2008-09-28T09:01:40Z</time>
      </trkpt>
      <trkpt lat="43.71874" lon="3.83927">
        <ele>100</ele>
        <time>2008-09-28T09:01:44Z</time>
      </trkpt>
      <trkpt lat="43.71873" lon="3.83927">
        <ele>100</ele>
        <time>2008-09-28T09:01:48Z</time>
      </trkpt>
      <trkpt lat="43.71873" lon="3.83927">
        <ele>100</ele>
        <time>2008-09-28T09:01:52Z</time>
      </trkpt>
      <trkpt lat="43.71872" lon="3.83928">
        <ele>100</ele>
        <time>2008-09-28T09:01:56Z</time>
      </trkpt>
      <trkpt lat="43.71872" lon="3.83927">
        <ele>100</ele>
        <time>2008-09-28T09:02:00Z</time>
      </trkpt>
      <trkpt lat="43.71872" lon="3.83927">
        <ele>100</ele>
        <time>2008-09-28T09:02:04Z</time>
      </trkpt>
      <trkpt lat="43.71872" lon="3.83927">
        <ele>100</ele>
        <time>2008-09-28T09:02:08Z</time>
      </trkpt>
      <trkpt lat="43.71871" lon="3.83927">
        <ele>100</ele>
        <time>2008-09-28T09:02:12Z</time>
      </trkpt>
      <trkpt lat="43.71871" lon="3.83926">
        <ele>100</ele>
        <time>2008-09-28T09:02:16Z</time>
      </trkpt>
      <trkpt lat="43.71871" lon="3.83926">
        <ele>100</ele>
        <time>2008-09-28T09:02:20Z</time>
      </trkpt>
      <trkpt lat="43.71871" lon="3.83925">
        <ele>100</ele>
        <time>2008-09-28T09:02:24Z</time>
      </trkpt>
      <trkpt lat="43.71872" lon="3.83924">
        <ele>100</ele>
        <time>2008-09-28T09:02:28Z</time>
      </trkpt>
      <trkpt lat="43.71872" lon="3.83924">
        <ele>100</ele>
        <time>2008-09-28T09:02:32Z</time>
      </trkpt>
      <trkpt lat="43.71872" lon="3.83923">
        <ele>100</ele>
        <time>2008-09-28T09:02:36Z</time>
      </trkpt>
      <trkpt lat="43.71872" lon="3.83922">
        <ele>100</ele>
        <time>2008-09-28T09:02:40Z</time>
      </trkpt>
      <trkpt lat="43.71873" lon="3.83922">
        <ele>100</ele>
        <time>2008-09-28T09:02:44Z</time>
      </trkpt>
      <trkpt lat="43.71873" lon="3.83921">
        <ele>100</ele>
        <time>2008-09-28T09:02:48Z</time>
      </trkpt>
      <trkpt lat="43.71873" lon="3.8392">
        <ele>100</ele>
        <time>2008-09-28T09:02:52Z</time>
      </trkpt>
      <trkpt lat="43.71873" lon="3.83919">
        <ele>100</ele>
        <time>2008-09-28T09:02:56Z</time>
      </trkpt>
      <trkpt lat="43.71874" lon="3.83918">
        <ele>100</ele>
        <time>2008-09-28T09:03:00Z</time>
      </trkpt>
      <trkpt lat="43.71874" lon="3.83917">
        <ele>100</ele>
        <time>2008-09-28T09:03:04Z</time>
      </trkpt>
      <trkpt lat="43.71875" lon="3.83916">
        <ele>100</ele>
        <time>2008-09-28T09:03:08Z</time>
      </trkpt>
      <trkpt lat="43.71875" lon="3.83915">
        <ele>99</ele>
        <time>2008-09-28T09:03:12Z</time>
      </trkpt>
      <trkpt lat="43.71875" lon="3.83914">
        <ele>99</ele>
        <time>2008-09-28T09:03:16Z</time>
      </trkpt>
      <trkpt lat="43.71876" lon="3.83913">
        <ele>99</ele>
        <time>2008-09-28T09:03:20Z</time>
      </trkpt>
      <trkpt lat="43.71906" lon="3.83831">
        <ele>99</ele>
        <time>2008-09-28T09:03:24Z</time>
      </trkpt>
      <trkpt lat="43.71906" lon="3.83827">
        <ele>99</ele>
        <time>2008-09-28T09:03:28Z</time>
      </trkpt>
      <trkpt lat="43.71906" lon="3.83824">
        <ele>99</ele>
        <time>2008-09-28T09:03:32Z</time>
      </trkpt>
      <trkpt lat="43.71906" lon="3.8382">
        <ele>99</ele>
        <time>2008-09-28T09:03:36Z</time>
      </trkpt>
      <trkpt lat="43.71905" lon="3.83817">
        <ele>99</ele>
        <time>2008-09-28T09:03:40Z</time>
      </trkpt>
      <trkpt lat="43.71905" lon="3.83813">
        <ele>99</ele>
        <time>2008-09-28T09:03:44Z</time>
      </trkpt>
      <trkpt lat="43.71905" lon="3.8381">
        <ele>99</ele>
        <time>2008-09-28T09:03:48Z</time>
      </trkpt>
      <trkpt lat="43.71905" lon="3.83806">
        <ele>99</ele>
        <time>2008-09-28T09:03:52Z</time>
      </trkpt>
      <trkpt lat="43.71905" lon="3.83803">
        <ele>99</ele>
        <time>2008-09-28T09:03:56Z</time>
      </trkpt>
      <trkpt lat="43.71904" lon="3.83799">
        <ele>100</ele>
        <time>2008-09-28T09:04:00Z</time>
      </trkpt>
      <trkpt lat="43.71904" lon="3.83796">
        <ele>100</ele>
        <time>2008-09-28T09:04:04Z</time>
      </trkpt>
      <trkpt lat="43.71904" lon="3.83792">
        <ele>100</ele>
        <time>2008-09-28T09:04:08Z</time>
      </trkpt>
      <trkpt lat="43.71905" lon="3.83789">
        <ele>100</ele>
        <time>2008-09-28T09:04:12Z</time>
      </trkpt>
      <trkpt lat="43.71905" lon="3.83785">
        <ele>100</ele>
        <time>2008-09-28T09:04:16Z</time>
      </trkpt>
      <trkpt lat="43.71906" lon="3.83782">
        <ele>100</ele>
        <time>2008-09-28T09:04:20Z</time>
      </trkpt>
      <trkpt lat="43.71906" lon="3.83778">
        <ele>100</ele>
        <time>2008-09-28T09:04:24Z</time>
      </trkpt>
      <trkpt lat="43.71906" lon="3.83774">
        <ele>100</ele>
        <time>2008-09-28T09:04:28Z</time>
      </trkpt>
      <trkpt lat="43.71906" lon="3.8377">
        <ele>100</ele>
        <time>2008-09-28T09:04:32Z</time>
      </trkpt>
      <trkpt lat="43.71906" lon="3.83767">
        <ele>101</ele>
        <time>2008-09-28T09:04:36Z</time>
      </trkpt>
      <trkpt lat="43.71906" lon="3.83763">
        <ele>101</ele>
        <time>2008-09-28T09:04:40Z</time>
      </trkpt>
      <trkpt lat="43.71906" lon="3.83759">
        <ele>101</ele>
        <time>2008-09-28T09:04:44Z</time>
      </trkpt>
      <trkpt lat="43.71905" lon="3.83755">
        <ele>101</ele>
        <time>2008-09-28T09:04:48Z</time>
      </trkpt>
      <trkpt lat="43.71883" lon="3.83665">
        <ele>103</ele>
        <time>2008-09-28T09:04:52Z</time>
      </trkpt>
      <trkpt lat="43.71881" lon="3.8366">
        <ele>103</ele>
        <time>2008-09-28T09:04:56Z</time>
      </trkpt>
      <trkpt lat="43.71877" lon="3.83658">
        <ele>103</ele>
        <time>2008-09-28T09:05:00Z</time>
      </trkpt>
      <trkpt lat="43.71872" lon="3.83659">
        <ele>103</ele>
        <time>2008-09-28T09:05:04Z</time>
      </trkpt>
      <trkpt lat="43.71867" lon="3.8366">
        <ele>103</ele>
        <time>2008-09-28T09:05:08Z</time>
      </trkpt>
      <trkpt lat="43.71862" lon="3.83664">
        <ele>103</ele>
        <time>2008-09-28T09:05:12Z</time>
      </trkpt>
      <trkpt lat="43.71831" lon="3.83697">
        <ele>103</ele>
        <time>2008-09-28T09:05:16Z</time>
      </trkpt>
      <trkpt lat="43.71828" lon="3.83702">
        <ele>103</ele>
        <time>2008-09-28T09:05:20Z</time>
      </trkpt>
      <trkpt lat="43.71825" lon="3.83703">
        <ele>103</ele>
        <time>2008-09-28T09:05:24Z</time>
      </trkpt>
      <trkpt lat="43.71822" lon="3.83704">
        <ele>103</ele>
        <time>2008-09-28T09:05:28Z</time>
      </trkpt>
      <trkpt lat="43.71819" lon="3.83704">
        <ele>103</ele>
        <time>2008-09-28T09:05:32Z</time>
      </trkpt>
      <trkpt lat="43.71816" lon="3.83703">
        <ele>103</ele>
        <time>2008-09-28T09:05:36Z</time>
      </trkpt>
      <trkpt lat="43.71814" lon="3.83701">
        <ele>103</ele>
        <time>2008-09-28T09:05:40Z</time>
      </trkpt>
      <trkpt lat="43.71812" lon="3.83697">
        <ele>104</ele>
        <time>2008-09-28T09:05:44Z</time>
      </trkpt>
      <trkpt lat="43.71809" lon="3.83693">
        <ele>104</ele>
        <time>2008-09-28T09:05:48Z</time>
      </trkpt>
      <trkpt lat="43.71807" lon="3.83688">
        <ele>104</ele>
        <time>2008-09-28T09:05:52Z</time>
      </trkpt>
      <trkpt lat="43.71805" lon="3.83682">
        <ele>104</ele>
        <time>2008-09-28T09:05:56Z</time>
      </trkpt>
      <trkpt lat="43.71803" lon="3.83676">
        <ele>104</ele>
        <time>2008-09-28T09:06:00Z</time>
      </trkpt>
      <trkpt lat="43.71772" lon="3.836">
        <ele>105</ele>
        <time>2008-09-28T09:06:04Z</time>
      </trkpt>
      <trkpt lat="43.71771" lon="3.83596">
        <ele>105</ele>
        <time>2008-09-28T09:06:08Z</time>
      </trkpt>
      <trkpt lat="43.71769" lon="3.83593">
        <ele>105</ele>
        <time>2008-09-28T09:06:12Z</time>
      </trkpt>
      <trkpt lat="43.71768" lon="3.83592">
        <ele>104</ele>
        <time>2008-09-28T09:06:16Z</time>
      </trkpt>
      <trkpt lat="43.71768" lon="3.8359">
        <ele>104</ele>
        <time>2008-09-28T09:06:20Z</time>
      </trkpt>
      <trkpt lat="43.71767" lon="3.83589">
        <ele>104</ele>
        <time>2008-09-28T09:06:24Z</time>
      </trkpt>
      <trkpt lat="43.71766" lon="3.83587">
        <ele>104</ele>
        <time>2008-09-28T09:06:28Z</time>
      </trkpt>
      <trkpt lat="43.71765" lon="3.83584">
        <ele>104</ele>
        <time>2008-09-28T09:06:32Z</time>
      </trkpt>
      <trkpt lat="43.71763" lon="3.8358">
        <ele>104</ele>
        <time>2008-09-28T09:06:36Z</time>
      </trkpt>
      <trkpt lat="43.71762" lon="3.83576">
        <ele>103</ele>
        <time>2008-09-28T09:06:40Z</time>
      </trkpt>
      <trkpt lat="43.71759" lon="3.83573">
        <ele>103</ele>
        <time>2008-09-28T09:06:44Z</time>
      </trkpt>
      <trkpt lat="43.71757" lon="3.8357">
        <ele>103</ele>
        <time>2008-09-28T09:06:48Z</time>
      </trkpt>
      <trkpt lat="43.71714" lon="3.83518">
        <ele>103</ele>
        <time>2008-09-28T09:06:52Z</time>
      </trkpt>
      <trkpt lat="43.71708" lon="3.83513">
        <ele>103</ele>
        <time>2008-09-28T09:06:56Z</time>
      </trkpt>
      <trkpt lat="43.71703" lon="3.8351">
        <ele>104</ele>
        <time>2008-09-28T09:07:00Z</time>
      </trkpt>
      <trkpt lat="43.71699" lon="3.8351">
        <ele>104</ele>
        <time>2008-09-28T09:07:04Z</time>
      </trkpt>
      <trkpt lat="43.71695" lon="3.8351">
        <ele>104</ele>
        <time>2008-09-28T09:07:08Z</time>
      </trkpt>
      <trkpt lat="43.71691" lon="3.83513">
        <ele>104</ele>
        <time>2008-09-28T09:07:12Z</time>
      </trkpt>
      <trkpt lat="43.71688" lon="3.83516">
        <ele>104</ele>
        <time>2008-09-28T09:07:16Z</time>
      </trkpt>
      <trkpt lat="43.71686" lon="3.8352">
        <ele>104</ele>
        <time>2008-09-28T09:07:20Z</time>
      </trkpt>
      <trkpt lat="43.71684" lon="3.83524">
        <ele>104</ele>
        <time>2008-09-28T09:07:24Z</time>
      </trkpt>
      <trkpt lat="43.71681" lon="3.83527">
        <ele>104</ele>
        <time>2008-09-28T09:07:28Z</time>
      </trkpt>
      <trkpt lat="43.71678" lon="3.83531">
        <ele>104</ele>
        <time>2008-09-28T09:07:32Z</time>
      </trkpt>
      <trkpt lat="43.71675" lon="3.83535">
        <ele>104</ele>
        <time>2008-09-28T09:07:36Z</time>
      </trkpt>
      <trkpt lat="43.71673" lon="3.8354">
        <ele>104</ele>
        <time>2008-09-28T09:07:40Z</time>
      </trkpt>
      <trkpt lat="43.71671" lon="3.83544">
        <ele>104</ele>
        <time>2008-09-28T09:07:44Z</time>
      </trkpt>
      <trkpt lat="43.71655" lon="3.83613">
        <ele>102</ele>
        <time>2008-09-28T09:07:48Z</time>
      </trkpt>
      <trkpt lat="43.71657" lon="3.83617">
        <ele>102</ele>
        <time>2008-09-28T09:07:52Z</time>
      </trkpt>
      <trkpt lat="43.71657" lon="3.8362">
        <ele>102</ele>
        <time>2008-09-28T09:07:56Z</time>
      </trkpt>
      <trkpt lat="43.71656" lon="3.83622">
        <ele>102</ele>
        <time>2008-09-28T09:08:00Z</time>
      </trkpt>
      <trkpt lat="43.71654" lon="3.83624">
        <ele>102</ele>
        <time>2008-09-28T09:08:04Z</time>
      </trkpt>
      <trkpt lat="43.71652" lon="3.83625">
        <ele>102</ele>
        <time>2008-09-28T09:08:08Z</time>
      </trkpt>
      <trkpt lat="43.71651" lon="3.83626">
        <ele>102</ele>
        <time>2008-09-28T09:08:12Z</time>
      </trkpt>
      <trkpt lat="43.7165" lon="3.83628">
        <ele>102</ele>
        <time>2008-09-28T09:08:16Z</time>
      </trkpt>
      <trkpt lat="43.71649" lon="3.8363">
        <ele>102</ele>
        <time>2008-09-28T09:08:20Z</time>
      </trkpt>
      <trkpt lat="43.71647" lon="3.83631">
        <ele>103</ele>
        <time>2008-09-28T09:08:24Z</time>
      </trkpt>
      <trkpt lat="43.71646" lon="3.83632">
        <ele>103</ele>
        <time>2008-09-28T09:08:28Z</time>
      </trkpt>
      <trkpt lat="43.71644" lon="3.83633">
        <ele>103</ele>
        <time>2008-09-28T09:08:32Z</time>
      </trkpt>
      <trkpt lat="43.71643" lon="3.83634">
        <ele>103</ele>
        <time>2008-09-28T09:08:36Z</time>
      </trkpt>
      <trkpt lat="43.71641" lon="3.83634">
        <ele>103</ele>
        <time>2008-09-28T09:08:40Z</time>
      </trkpt>
      <trkpt lat="43.71639" lon="3.83634">
        <ele>103</ele>
        <time>2008-09-28T09:08:44Z</time>
      </trkpt>
      <trkpt lat="43.71637" lon="3.83635">
        <ele>103</ele>
        <time>2008-09-28T09:08:48Z</time>
      </trkpt>
      <trkpt lat="43.71635" lon="3.83635">
        <ele>104</ele>
        <time>2008-09-28T09:08:52Z</time>
      </trkpt>
      <trkpt lat="43.71633" lon="3.83635">
        <ele>104</ele>
        <time>2008-09-28T09:08:56Z</time>
      </trkpt>
      <trkpt lat="43.7163" lon="3.83635">
        <ele>104</ele>
        <time>2008-09-28T09:09:00Z</time>
      </trkpt>
      <trkpt lat="43.71628" lon="3.83635">
        <ele>104</ele>
        <time>2008-09-28T09:09:04Z</time>
      </trkpt>
      <trkpt lat="43.71626" lon="3.83634">
        <ele>104</ele>
        <time>2008-09-28T09:09:08Z</time>
      </trkpt>
      <trkpt lat="43.71624" lon="3.83633">
        <ele>104</ele>
        <time>2008-09-28T09:09:12Z</time>
      </trkpt>
      <trkpt lat="43.71621" lon="3.83632">
        <ele>105</ele>
        <time>2008-09-28T09:09:16Z</time>
      </trkpt>
      <trkpt lat="43.71619" lon="3.83631">
        <ele>105</ele>
        <time>2008-09-28T09:09:20Z</time>
      </trkpt>
      <trkpt lat="43.71617" lon="3.83629">
        <ele>105</ele>
        <time>2008-09-28T09:09:24Z</time>
      </trkpt>
      <trkpt lat="43.71556" lon="3.83586">
        <ele>109</ele>
        <time>2008-09-28T09:09:28Z</time>
      </trkpt>
      <trkpt lat="43.71553" lon="3.83584">
        <ele>109</ele>
        <time>2008-09-28T09:09:32Z</time>
      </trkpt>
      <trkpt lat="43.71553" lon="3.83584">
        <ele>109</ele>
        <time>2008-09-28T09:09:36Z</time>
      </trkpt>
      <trkpt lat="43.71552" lon="3.83584">
        <ele>109</ele>
        <time>2008-09-28T09:09:40Z</time>
      </trkpt>
      <trkpt lat="43.71551" lon="3.83584">
        <ele>109</ele>
        <time>2008-09-28T09:09:44Z</time>
      </trkpt>
      <trkpt lat="43.7155" lon="3.83583">
        <ele>109</ele>
        <time>2008-09-28T09:09:48Z</time>
      </trkpt>
      <trkpt lat="43.71549" lon="3.83582">
        <ele>109</ele>
        <time>2008-09-28T09:09:52Z</time>
      </trkpt>
      <trkpt lat="43.71548" lon="3.83581">
        <ele>109</ele>
        <time>2008-09-28T09:09:56Z</time>
      </trkpt>
      <trkpt lat="43.71546" lon="3.83579">
        <ele>109</ele>
        <time>2008-09-28T09:10:00Z</time>
      </trkpt>
      <trkpt lat="43.71545" lon="3.83577">
        <ele>109</ele>
        <time>2008-09-28T09:10:04Z</time>
      </trkpt>
      <trkpt lat="43.71543" lon="3.83574">
        <ele>109</ele>
        <time>2008-09-28T09:10:08Z</time>
      </trkpt>
      <trkpt lat="43.71541" lon="3.83572">
        <ele>109</ele>
        <time>2008-09-28T09:10:12Z</time>
      </trkpt>
      <trkpt lat="43.71539" lon="3.8357">
        <ele>109</ele>
        <time>2008-09-28T09:10:16Z</time>
      </trkpt>
      <trkpt lat="43.71505" lon="3.83534">
        <ele>112</ele>
        <time>2008-09-28T09:10:20Z</time>
      </trkpt>
      <trkpt lat="43.71502" lon="3.83532">
        <ele>112</ele>
        <time>2008-09-28T09:10:24Z</time>
      </trkpt>
      <trkpt lat="43.71499" lon="3.83529">
        <ele>112</ele>
        <time>2008-09-28T09:10:28Z</time>
      </trkpt>
      <trkpt lat="43.71497" lon="3.83528">
        <ele>113</ele>
        <time>2008-09-28T09:10:32Z</time>
      </trkpt>
      <trkpt lat="43.71494" lon="3.83528">
        <ele>113</ele>
        <time>2008-09-28T09:10:36Z</time>
      </trkpt>
      <trkpt lat="43.71491" lon="3.83528">
        <ele>113</ele>
        <time>2008-09-28T09:10:40Z</time>
      </trkpt>
      <trkpt lat="43.71488" lon="3.83529">
        <ele>113</ele>
        <time>2008-09-28T09:10:44Z</time>
      </trkpt>
      <trkpt lat="43.71485" lon="3.8353">
        <ele>114</ele>
        <time>2008-09-28T09:10:48Z</time>
      </trkpt>
      <trkpt lat="43.71455" lon="3.83551">
        <ele>115</ele>
        <time>2008-09-28T09:10:52Z</time>
      </trkpt>
      <trkpt lat="43.71453" lon="3.83553">
        <ele>115</ele>
        <time>2008-09-28T09:10:56Z</time>
      </trkpt>
      <trkpt lat="43.71451" lon="3.83556">
        <ele>116</ele>
        <time>2008-09-28T09:11:00Z</time>
      </trkpt>
      <trkpt lat="43.71449" lon="3.83559">
        <ele>116</ele>
        <time>2008-09-28T09:11:04Z</time>
      </trkpt>
      <trkpt lat="43.71448" lon="3.83563">
        <ele>116</ele>
        <time>2008-09-28T09:11:08Z</time>
      </trkpt>
      <trkpt lat="43.71448" lon="3.83566">
        <ele>116</ele>
        <time>2008-09-28T09:11:12Z</time>
      </trkpt>
      <trkpt lat="43.71447" lon="3.83571">
        <ele>116</ele>
        <time>2008-09-28T09:11:16Z</time>
      </trkpt>
      <trkpt lat="43.71435" lon="3.83613">
        <ele>117</ele>
        <time>2008-09-28T09:11:20Z</time>
      </trkpt>
      <trkpt lat="43.71431" lon="3.83623">
        <ele>117</ele>
        <time>2008-09-28T09:11:24Z</time>
      </trkpt>
      <trkpt lat="43.71427" lon="3.83631">
        <ele>117</ele>
        <time>2008-09-28T09:11:29Z</time>
      </trkpt>
      <trkpt lat="43.71423" lon="3.83637">
        <ele>117</ele>
        <time>2008-09-28T09:11:33Z</time>
      </trkpt>
      <trkpt lat="43.71419" lon="3.83643">
        <ele>117</ele>
        <time>2008-09-28T09:11:37Z</time>
      </trkpt>
      <trkpt lat="43.71402" lon="3.83668">
        <ele>118</ele>
        <time>2008-09-28T09:11:41Z</time>
      </trkpt>
      <trkpt lat="43.714" lon="3.83673">
        <ele>118</ele>
        <time>2008-09-28T09:11:45Z</time>
      </trkpt>
      <trkpt lat="43.71398" lon="3.83678">
        <ele>118</ele>
        <time>2008-09-28T09:11:49Z</time>
      </trkpt>
      <trkpt lat="43.71397" lon="3.83683">
        <ele>119</ele>
        <time>2008-09-28T09:11:53Z</time>
      </trkpt>
      <trkpt lat="43.71395" lon="3.83687">
        <ele>119</ele>
        <time>2008-09-28T09:11:57Z</time>
      </trkpt>
      <trkpt lat="43.71394" lon="3.8369">
        <ele>119</ele>
        <time>2008-09-28T09:12:01Z</time>
      </trkpt>
      <trkpt lat="43.7138" lon="3.83719">
        <ele>120</ele>
        <time>2008-09-28T09:12:05Z</time>
      </trkpt>
      <trkpt lat="43.71378" lon="3.83725">
        <ele>121</ele>
        <time>2008-09-28T09:12:09Z</time>
      </trkpt>
      <trkpt lat="43.71376" lon="3.83731">
        <ele>121</ele>
        <time>2008-09-28T09:12:13Z</time>
      </trkpt>
      <trkpt lat="43.71375" lon="3.83736">
        <ele>121</ele>
        <time>2008-09-28T09:12:17Z</time>
      </trkpt>
      <trkpt lat="43.71376" lon="3.83742">
        <ele>121</ele>
        <time>2008-09-28T09:12:21Z</time>
      </trkpt>
      <trkpt lat="43.71375" lon="3.83747">
        <ele>121</ele>
        <time>2008-09-28T09:12:25Z</time>
      </trkpt>
      <trkpt lat="43.71369" lon="3.83783">
        <ele>121</ele>
        <time>2008-09-28T09:12:29Z</time>
      </trkpt>
      <trkpt lat="43.71367" lon="3.83787">
        <ele>121</ele>
        <time>2008-09-28T09:12:33Z</time>
      </trkpt>
      <trkpt lat="43.71365" lon="3.8379">
        <ele>121</ele>
        <time>2008-09-28T09:12:37Z</time>
      </trkpt>
      <trkpt lat="43.71363" lon="3.83791">
        <ele>120</ele>
        <time>2008-09-28T09:12:41Z</time>
      </trkpt>
      <trkpt lat="43.71361" lon="3.83791">
        <ele>120</ele>
        <time>2008-09-28T09:12:45Z</time>
      </trkpt>
      <trkpt lat="43.71358" lon="3.83791">
        <ele>120</ele>
        <time>2008-09-28T09:12:49Z</time>
      </trkpt>
      <trkpt lat="43.71354" lon="3.8379">
        <ele>120</ele>
        <time>2008-09-28T09:12:53Z</time>
      </trkpt>
      <trkpt lat="43.71351" lon="3.8379">
        <ele>120</ele>
        <time>2008-09-28T09:12:57Z</time>
      </trkpt>
      <trkpt lat="43.71348" lon="3.8379">
        <ele>120</ele>
        <time>2008-09-28T09:13:01Z</time>
      </trkpt>
      <trkpt lat="43.71345" lon="3.8379">
        <ele>120</ele>
        <time>2008-09-28T09:13:05Z</time>
      </trkpt>
      <trkpt lat="43.71342" lon="3.8379">
        <ele>120</ele>
        <time>2008-09-28T09:13:09Z</time>
      </trkpt>
      <trkpt lat="43.7134" lon="3.83791">
        <ele>120</ele>
        <time>2008-09-28T09:13:13Z</time>
      </trkpt>
      <trkpt lat="43.71337" lon="3.83791">
        <ele>120</ele>
        <time>2008-09-28T09:13:17Z</time>
      </trkpt>
      <trkpt lat="43.71335" lon="3.83791">
        <ele>120</ele>
        <time>2008-09-28T09:13:21Z</time>
      </trkpt>
      <trkpt lat="43.71333" lon="3.8379">
        <ele>119</ele>
        <time>2008-09-28T09:13:25Z</time>
      </trkpt>
      <trkpt lat="43.71331" lon="3.83789">
        <ele>119</ele>
        <time>2008-09-28T09:13:29Z</time>
      </trkpt>
      <trkpt lat="43.71329" lon="3.83787">
        <ele>119</ele>
        <time>2008-09-28T09:13:33Z</time>
      </trkpt>
      <trkpt lat="43.71327" lon="3.83785">
        <ele>120</ele>
        <time>2008-09-28T09:13:37Z</time>
      </trkpt>
      <trkpt lat="43.71325" lon="3.83783">
        <ele>120</ele>
        <time>2008-09-28T09:13:41Z</time>
      </trkpt>
      <trkpt lat="43.71324" lon="3.83781">
        <ele>120</ele>
        <time>2008-09-28T09:13:45Z</time>
      </trkpt>
      <trkpt lat="43.71322" lon="3.83779">
        <ele>120</ele>
        <time>2008-09-28T09:13:49Z</time>
      </trkpt>
      <trkpt lat="43.71321" lon="3.83777">
        <ele>120</ele>
        <time>2008-09-28T09:13:53Z</time>
      </trkpt>
      <trkpt lat="43.71319" lon="3.83776">
        <ele>120</ele>
        <time>2008-09-28T09:13:57Z</time>
      </trkpt>
      <trkpt lat="43.71317" lon="3.83774">
        <ele>120</ele>
        <time>2008-09-28T09:14:01Z</time>
      </trkpt>
      <trkpt lat="43.71315" lon="3.83773">
        <ele>120</ele>
        <time>2008-09-28T09:14:05Z</time>
      </trkpt>
      <trkpt lat="43.71312" lon="3.83772">
        <ele>120</ele>
        <time>2008-09-28T09:14:09Z</time>
      </trkpt>
      <trkpt lat="43.71248" lon="3.83749">
        <ele>122</ele>
        <time>2008-09-28T09:14:13Z</time>
      </trkpt>
      <trkpt lat="43.71246" lon="3.83748">
        <ele>122</ele>
        <time>2008-09-28T09:14:17Z</time>
      </trkpt>
      <trkpt lat="43.71242" lon="3.83748">
        <ele>122</ele>
        <time>2008-09-28T09:14:21Z</time>
      </trkpt>
      <trkpt lat="43.71238" lon="3.83748">
        <ele>122</ele>
        <time>2008-09-28T09:14:25Z</time>
      </trkpt>
      <trkpt lat="43.71234" lon="3.83748">
        <ele>122</ele>
        <time>2008-09-28T09:14:29Z</time>
      </trkpt>
      <trkpt lat="43.71229" lon="3.83748">
        <ele>122</ele>
        <time>2008-09-28T09:14:33Z</time>
      </trkpt>
      <trkpt lat="43.71225" lon="3.83746">
        <ele>122</ele>
        <time>2008-09-28T09:14:37Z</time>
      </trkpt>
      <trkpt lat="43.71221" lon="3.83744">
        <ele>123</ele>
        <time>2008-09-28T09:14:41Z</time>
      </trkpt>
      <trkpt lat="43.71217" lon="3.83741">
        <ele>123</ele>
        <time>2008-09-28T09:14:45Z</time>
      </trkpt>
      <trkpt lat="43.71214" lon="3.83738">
        <ele>123</ele>
        <time>2008-09-28T09:14:49Z</time>
      </trkpt>
      <trkpt lat="43.71211" lon="3.83736">
        <ele>123</ele>
        <time>2008-09-28T09:14:53Z</time>
      </trkpt>
      <trkpt lat="43.71208" lon="3.83733">
        <ele>123</ele>
        <time>2008-09-28T09:14:57Z</time>
      </trkpt>
      <trkpt lat="43.71205" lon="3.8373">
        <ele>124</ele>
        <time>2008-09-28T09:15:01Z</time>
      </trkpt>
      <trkpt lat="43.71202" lon="3.83726">
        <ele>124</ele>
        <time>2008-09-28T09:15:05Z</time>
      </trkpt>
      <trkpt lat="43.71157" lon="3.83665">
        <ele>126</ele>
        <time>2008-09-28T09:15:09Z</time>
      </trkpt>
      <trkpt lat="43.71155" lon="3.83663">
        <ele>127</ele>
        <time>2008-09-28T09:15:13Z</time>
      </trkpt>
      <trkpt lat="43.71152" lon="3.83661">
        <ele>127</ele>
        <time>2008-09-28T09:15:17Z</time>
      </trkpt>
      <trkpt lat="43.71149" lon="3.83661">
        <ele>127</ele>
        <time>2008-09-28T09:15:21Z</time>
      </trkpt>
      <trkpt lat="43.71147" lon="3.8366">
        <ele>127</ele>
        <time>2008-09-28T09:15:25Z</time>
      </trkpt>
      <trkpt lat="43.71145" lon="3.83659">
        <ele>126</ele>
        <time>2008-09-28T09:15:29Z</time>
      </trkpt>
      <trkpt lat="43.71142" lon="3.83658">
        <ele>126</ele>
        <time>2008-09-28T09:15:33Z</time>
      </trkpt>
      <trkpt lat="43.7114" lon="3.83657">
        <ele>126</ele>
        <time>2008-09-28T09:15:37Z</time>
      </trkpt>
      <trkpt lat="43.71137" lon="3.83656">
        <ele>126</ele>
        <time>2008-09-28T09:15:41Z</time>
      </trkpt>
      <trkpt lat="43.71135" lon="3.83655">
        <ele>127</ele>
        <time>2008-09-28T09:15:45Z</time>
      </trkpt>
      <trkpt lat="43.71133" lon="3.83654">
        <ele>127</ele>
        <time>2008-09-28T09:15:49Z</time>
      </trkpt>
      <trkpt lat="43.71131" lon="3.83653">
        <ele>127</ele>
        <time>2008-09-28T09:15:53Z</time>
      </trkpt>
      <trkpt lat="43.71129" lon="3.83653">
        <ele>127</ele>
        <time>2008-09-28T09:15:57Z</time>
      </trkpt>
      <trkpt lat="43.71127" lon="3.83653">
        <ele>127</ele>
        <time>2008-09-28T09:16:01Z</time>
      </trkpt>
      <trkpt lat="43.71125" lon="3.83653">
        <ele>127</ele>
        <time>2008-09-28T09:16:05Z</time>
      </trkpt>
      <trkpt lat="43.71124" lon="3.83654">
        <ele>127</ele>
        <time>2008-09-28T09:16:09Z</time>
      </trkpt>
      <trkpt lat="43.71122" lon="3.83654">
        <ele>127</ele>
        <time>2008-09-28T09:16:13Z</time>
      </trkpt>
      <trkpt lat="43.71121" lon="3.83655">
        <ele>127</ele>
        <time>2008-09-28T09:16:17Z</time>
      </trkpt>
      <trkpt lat="43.7112" lon="3.83656">
        <ele>127</ele>
        <time>2008-09-28T09:16:21Z</time>
      </trkpt>
      <trkpt lat="43.7112" lon="3.83657">
        <ele>127</ele>
        <time>2008-09-28T09:16:25Z</time>
      </trkpt>
      <trkpt lat="43.7112" lon="3.83657">
        <ele>127</ele>
        <time>2008-09-28T09:16:29Z</time>
      </trkpt>
      <trkpt lat="43.7112" lon="3.83658">
        <ele>127</ele>
        <time>2008-09-28T09:16:33Z</time>
      </trkpt>
      <trkpt lat="43.71121" lon="3.8366">
        <ele>127</ele>
        <time>2008-09-28T09:16:37Z</time>
      </trkpt>
      <trkpt lat="43.71121" lon="3.83661">
        <ele>127</ele>
        <time>2008-09-28T09:16:41Z</time>
      </trkpt>
      <trkpt lat="43.71122" lon="3.83662">
        <ele>127</ele>
        <time>2008-09-28T09:16:45Z</time>
      </trkpt>
      <trkpt lat="43.71122" lon="3.83663">
        <ele>127</ele>
        <time>2008-09-28T09:16:49Z</time>
      </trkpt>
      <trkpt lat="43.71122" lon="3.83663">
        <ele>127</ele>
        <time>2008-09-28T09:16:53Z</time>
      </trkpt>
      <trkpt lat="43.71123" lon="3.83664">
        <ele>127</ele>
        <time>2008-09-28T09:16:57Z</time>
      </trkpt>
      <trkpt lat="43.71124" lon="3.83665">
        <ele>127</ele>
        <time>2008-09-28T09:17:01Z</time>
      </trkpt>
      <trkpt lat="43.71124" lon="3.83666">
        <ele>127</ele>
        <time>2008-09-28T09:17:05Z</time>
      </trkpt>
      <trkpt lat="43.71125" lon="3.83666">
        <ele>127</ele>
        <time>2008-09-28T09:17:09Z</time>
      </trkpt>
      <trkpt lat="43.71126" lon="3.83666">
        <ele>127</ele>
        <time>2008-09-28T09:17:13Z</time>
      </trkpt>
      <trkpt lat="43.71127" lon="3.83667">
        <ele>126</ele>
        <time>2008-09-28T09:17:17Z</time>
      </trkpt>
      <trkpt lat="43.71128" lon="3.83668">
        <ele>126</ele>
        <time>2008-09-28T09:17:21Z</time>
      </trkpt>
      <trkpt lat="43.71128" lon="3.83668">
        <ele>126</ele>
        <time>2008-09-28T09:17:25Z</time>
      </trkpt>
      <trkpt lat="43.71129" lon="3.83669">
        <ele>126</ele>
        <time>2008-09-28T09:17:29Z</time>
      </trkpt>
      <trkpt lat="43.7113" lon="3.8367">
        <ele>126</ele>
        <time>2008-09-28T09:17:33Z</time>
      </trkpt>
      <trkpt lat="43.7113" lon="3.8367">
        <ele>126</ele>
        <time>2008-09-28T09:17:37Z</time>
      </trkpt>
      <trkpt lat="43.7113" lon="3.83671">
        <ele>126</ele>
        <time>2008-09-28T09:17:41Z</time>
      </trkpt>
      <trkpt lat="43.71131" lon="3.83671">
        <ele>126</ele>
        <time>2008-09-28T09:17:45Z</time>
      </trkpt>
      <trkpt lat="43.71131" lon="3.83671">
        <ele>126</ele>
        <time>2008-09-28T09:17:49Z</time>
      </trkpt>
      <trkpt lat="43.71131" lon="3.83671">
        <ele>126</ele>
        <time>2008-09-28T09:17:53Z</time>
      </trkpt>
      <trkpt lat="43.71131" lon="3.83672">
        <ele>126</ele>
        <time>2008-09-28T09:17:57Z</time>
      </trkpt>
      <trkpt lat="43.71131" lon="3.83672">
        <ele>126</ele>
        <time>2008-09-28T09:18:01Z</time>
      </trkpt>
      <trkpt lat="43.71131" lon="3.83672">
        <ele>126</ele>
        <time>2008-09-28T09:18:05Z</time>
      </trkpt>
      <trkpt lat="43.71131" lon="3.83672">
        <ele>126</ele>
        <time>2008-09-28T09:18:09Z</time>
      </trkpt>
      <trkpt lat="43.7113" lon="3.83672">
        <ele>126</ele>
        <time>2008-09-28T09:18:13Z</time>
      </trkpt>
      <trkpt lat="43.7113" lon="3.83672">
        <ele>126</ele>
        <time>2008-09-28T09:18:17Z</time>
      </trkpt>
      <trkpt lat="43.71129" lon="3.83671">
        <ele>126</ele>
        <time>2008-09-28T09:18:21Z</time>
      </trkpt>
      <trkpt lat="43.71129" lon="3.83671">
        <ele>126</ele>
        <time>2008-09-28T09:18:25Z</time>
      </trkpt>
      <trkpt lat="43.71128" lon="3.83671">
        <ele>126</ele>
        <time>2008-09-28T09:18:29Z</time>
      </trkpt>
      <trkpt lat="43.71128" lon="3.8367">
        <ele>126</ele>
        <time>2008-09-28T09:18:33Z</time>
      </trkpt>
      <trkpt lat="43.71127" lon="3.83669">
        <ele>126</ele>
        <time>2008-09-28T09:18:37Z</time>
      </trkpt>
      <trkpt lat="43.71126" lon="3.83668">
        <ele>126</ele>
        <time>2008-09-28T09:18:41Z</time>
      </trkpt>
      <trkpt lat="43.71125" lon="3.83667">
        <ele>126</ele>
        <time>2008-09-28T09:18:45Z</time>
      </trkpt>
      <trkpt lat="43.71072" lon="3.83618">
        <ele>127</ele>
        <time>2008-09-28T09:18:49Z</time>
      </trkpt>
      <trkpt lat="43.71068" lon="3.83616">
        <ele>127</ele>
        <time>2008-09-28T09:18:53Z</time>
      </trkpt>
      <trkpt lat="43.71065" lon="3.83614">
        <ele>127</ele>
        <time>2008-09-28T09:18:57Z</time>
      </trkpt>
      <trkpt lat="43.71063" lon="3.83613">
        <ele>127</ele>
        <time>2008-09-28T09:19:01Z</time>
      </trkpt>
      <trkpt lat="43.71061" lon="3.83613">
        <ele>127</ele>
        <time>2008-09-28T09:19:05Z</time>
      </trkpt>
      <trkpt lat="43.71059" lon="3.83612">
        <ele>127</ele>
        <time>2008-09-28T09:19:09Z</time>
      </trkpt>
      <trkpt lat="43.71057" lon="3.83611">
        <ele>127</ele>
        <time>2008-09-28T09:19:14Z</time>
      </trkpt>
      <trkpt lat="43.71055" lon="3.8361">
        <ele>127</ele>
        <time>2008-09-28T09:19:18Z</time>
      </trkpt>
      <trkpt lat="43.71054" lon="3.83608">
        <ele>127</ele>
        <time>2008-09-28T09:19:22Z</time>
      </trkpt>
      <trkpt lat="43.71052" lon="3.83608">
        <ele>127</ele>
        <time>2008-09-28T09:19:26Z</time>
      </trkpt>
      <trkpt lat="43.7105" lon="3.83607">
        <ele>127</ele>
        <time>2008-09-28T09:19:30Z</time>
      </trkpt>
      <trkpt lat="43.71048" lon="3.83607">
        <ele>127</ele>
        <time>2008-09-28T09:19:34Z</time>
      </trkpt>
      <trkpt lat="43.71046" lon="3.83606">
        <ele>127</ele>
        <time>2008-09-28T09:19:38Z</time>
      </trkpt>
      <trkpt lat="43.71044" lon="3.83607">
        <ele>127</ele>
        <time>2008-09-28T09:19:42Z</time>
      </trkpt>
      <trkpt lat="43.71042" lon="3.83607">
        <ele>127</ele>
        <time>2008-09-28T09:19:46Z</time>
      </trkpt>
      <trkpt lat="43.7104" lon="3.83606">
        <ele>127</ele>
        <time>2008-09-28T09:19:50Z</time>
      </trkpt>
      <trkpt lat="43.71038" lon="3.83605">
        <ele>127</ele>
        <time>2008-09-28T09:19:54Z</time>
      </trkpt>
      <trkpt lat="43.71036" lon="3.83604">
        <ele>127</ele>
        <time>2008-09-28T09:19:59Z</time>
      </trkpt>
      <trkpt lat="43.71033" lon="3.83602">
        <ele>127</ele>
        <time>2008-09-28T09:20:03Z</time>
      </trkpt>
      <trkpt lat="43.7103" lon="3.83601">
        <ele>127</ele>
        <time>2008-09-28T09:20:07Z</time>
      </trkpt>
      <trkpt lat="43.71028" lon="3.83598">
        <ele>127</ele>
        <time>2008-09-28T09:20:11Z</time>
      </trkpt>
      <trkpt lat="43.71025" lon="3.83596">
        <ele>127</ele>
        <time>2008-09-28T09:20:15Z</time>
      </trkpt>
      <trkpt lat="43.71023" lon="3.83594">
        <ele>127</ele>
        <time>2008-09-28T09:20:19Z</time>
      </trkpt>
      <trkpt lat="43.70967" lon="3.83543">
        <ele>128</ele>
        <time>2008-09-28T09:20:23Z</time>
      </trkpt>
      <trkpt lat="43.70964" lon="3.83537">
        <ele>128</ele>
        <time>2008-09-28T09:20:27Z</time>
      </trkpt>
      <trkpt lat="43.7096" lon="3.83531">
        <ele>128</ele>
        <time>2008-09-28T09:20:31Z</time>
      </trkpt>
      <trkpt lat="43.70956" lon="3.83524">
        <ele>128</ele>
        <time>2008-09-28T09:20:35Z</time>
      </trkpt>
      <trkpt lat="43.70953" lon="3.83517">
        <ele>128</ele>
        <time>2008-09-28T09:20:39Z</time>
      </trkpt>
      <trkpt lat="43.70928" lon="3.83469">
        <ele>128</ele>
        <time>2008-09-28T09:20:43Z</time>
      </trkpt>
      <trkpt lat="43.70908" lon="3.83451">
        <ele>127</ele>
        <time>2008-09-28T09:20:47Z</time>
      </trkpt>
      <trkpt lat="43.70896" lon="3.83431">
        <ele>126</ele>
        <time>2008-09-28T09:20:51Z</time>
      </trkpt>
      <trkpt lat="43.70883" lon="3.83411">
        <ele>126</ele>
        <time>2008-09-28T09:20:56Z</time>
      </trkpt>
      <trkpt lat="43.70878" lon="3.8341">
        <ele>126</ele>
        <time>2008-09-28T09:21:00Z</time>
      </trkpt>
      <trkpt lat="43.70875" lon="3.8341">
        <ele>126</ele>
        <time>2008-09-28T09:21:04Z</time>
      </trkpt>
      <trkpt lat="43.70874" lon="3.8341">
        <ele>127</ele>
        <time>2008-09-28T09:21:08Z</time>
      </trkpt>
      <trkpt lat="43.70873" lon="3.83409">
        <ele>127</ele>
        <time>2008-09-28T09:21:12Z</time>
      </trkpt>
      <trkpt lat="43.70872" lon="3.83409">
        <ele>127</ele>
        <time>2008-09-28T09:21:16Z</time>
      </trkpt>
      <trkpt lat="43.70871" lon="3.83409">
        <ele>127</ele>
        <time>2008-09-28T09:21:20Z</time>
      </trkpt>
      <trkpt lat="43.7087" lon="3.8341">
        <ele>127</ele>
        <time>2008-09-28T09:21:24Z</time>
      </trkpt>
      <trkpt lat="43.70869" lon="3.8341">
        <ele>126</ele>
        <time>2008-09-28T09:21:28Z</time>
      </trkpt>
      <trkpt lat="43.70869" lon="3.8341">
        <ele>126</ele>
        <time>2008-09-28T09:21:32Z</time>
      </trkpt>
      <trkpt lat="43.70869" lon="3.8341">
        <ele>126</ele>
        <time>2008-09-28T09:21:36Z</time>
      </trkpt>
      <trkpt lat="43.70868" lon="3.8341">
        <ele>126</ele>
        <time>2008-09-28T09:21:40Z</time>
      </trkpt>
      <trkpt lat="43.70868" lon="3.8341">
        <ele>126</ele>
        <time>2008-09-28T09:21:44Z</time>
      </trkpt>
      <trkpt lat="43.70868" lon="3.8341">
        <ele>126</ele>
        <time>2008-09-28T09:21:48Z</time>
      </trkpt>
      <trkpt lat="43.70868" lon="3.8341">
        <ele>126</ele>
        <time>2008-09-28T09:21:52Z</time>
      </trkpt>
      <trkpt lat="43.70868" lon="3.83409">
        <ele>126</ele>
        <time>2008-09-28T09:21:56Z</time>
      </trkpt>
      <trkpt lat="43.70868" lon="3.83409">
        <ele>126</ele>
        <time>2008-09-28T09:22:00Z</time>
      </trkpt>
      <trkpt lat="43.70868" lon="3.83408">
        <ele>126</ele>
        <time>2008-09-28T09:22:04Z</time>
      </trkpt>
      <trkpt lat="43.70868" lon="3.83407">
        <ele>126</ele>
        <time>2008-09-28T09:22:08Z</time>
      </trkpt>
      <trkpt lat="43.70868" lon="3.83406">
        <ele>126</ele>
        <time>2008-09-28T09:22:12Z</time>
      </trkpt>
      <trkpt lat="43.70867" lon="3.83405">
        <ele>126</ele>
        <time>2008-09-28T09:22:16Z</time>
      </trkpt>
      <trkpt lat="43.70867" lon="3.83405">
        <ele>126</ele>
        <time>2008-09-28T09:22:20Z</time>
      </trkpt>
      <trkpt lat="43.70867" lon="3.83404">
        <ele>126</ele>
        <time>2008-09-28T09:22:24Z</time>
      </trkpt>
      <trkpt lat="43.70867" lon="3.83404">
        <ele>126</ele>
        <time>2008-09-28T09:22:28Z</time>
      </trkpt>
      <trkpt lat="43.70867" lon="3.83404">
        <ele>126</ele>
        <time>2008-09-28T09:22:32Z</time>
      </trkpt>
      <trkpt lat="43.70867" lon="3.83404">
        <ele>126</ele>
        <time>2008-09-28T09:22:36Z</time>
      </trkpt>
      <trkpt lat="43.70867" lon="3.83403">
        <ele>126</ele>
        <time>2008-09-28T09:22:40Z</time>
      </trkpt>
      <trkpt lat="43.70867" lon="3.83403">
        <ele>126</ele>
        <time>2008-09-28T09:22:44Z</time>
      </trkpt>
      <trkpt lat="43.70867" lon="3.83403">
        <ele>126</ele>
        <time>2008-09-28T09:22:48Z</time>
      </trkpt>
      <trkpt lat="43.70867" lon="3.83403">
        <ele>126</ele>
        <time>2008-09-28T09:22:52Z</time>
      </trkpt>
      <trkpt lat="43.70867" lon="3.83403">
        <ele>126</ele>
        <time>2008-09-28T09:22:56Z</time>
      </trkpt>
      <trkpt lat="43.70867" lon="3.83403">
        <ele>126</ele>
        <time>2008-09-28T09:23:00Z</time>
      </trkpt>
      <trkpt lat="43.70867" lon="3.83402">
        <ele>126</ele>
        <time>2008-09-28T09:23:04Z</time>
      </trkpt>
      <trkpt lat="43.70867" lon="3.83402">
        <ele>126</ele>
        <time>2008-09-28T09:23:08Z</time>
      </trkpt>
      <trkpt lat="43.70867" lon="3.83402">
        <ele>126</ele>
        <time>2008-09-28T09:23:12Z</time>
      </trkpt>
      <trkpt lat="43.70867" lon="3.83402">
        <ele>126</ele>
        <time>2008-09-28T09:23:16Z</time>
      </trkpt>
      <trkpt lat="43.70867" lon="3.83402">
        <ele>126</ele>
        <time>2008-09-28T09:23:20Z</time>
      </trkpt>
      <trkpt lat="43.70867" lon="3.83402">
        <ele>126</ele>
        <time>2008-09-28T09:23:24Z</time>
      </trkpt>
      <trkpt lat="43.70867" lon="3.83402">
        <ele>126</ele>
        <time>2008-09-28T09:23:28Z</time>
      </trkpt>
      <trkpt lat="43.70866" lon="3.83402">
        <ele>126</ele>
        <time>2008-09-28T09:23:32Z</time>
      </trkpt>
      <trkpt lat="43.70866" lon="3.83402">
        <ele>126</ele>
        <time>2008-09-28T09:23:36Z</time>
      </trkpt>
      <trkpt lat="43.70866" lon="3.83402">
        <ele>126</ele>
        <time>2008-09-28T09:23:40Z</time>
      </trkpt>
      <trkpt lat="43.70866" lon="3.83402">
        <ele>126</ele>
        <time>2008-09-28T09:23:45Z</time>
      </trkpt>
      <trkpt lat="43.70866" lon="3.83402">
        <ele>126</ele>
        <time>2008-09-28T09:23:49Z</time>
      </trkpt>
      <trkpt lat="43.70866" lon="3.83402">
        <ele>126</ele>
        <time>2008-09-28T09:23:53Z</time>
      </trkpt>
      <trkpt lat="43.70866" lon="3.83402">
        <ele>126</ele>
        <time>2008-09-28T09:23:57Z</time>
      </trkpt>
      <trkpt lat="43.70866" lon="3.83402">
        <ele>126</ele>
        <time>2008-09-28T09:24:01Z</time>
      </trkpt>
      <trkpt lat="43.70866" lon="3.83402">
        <ele>126</ele>
        <time>2008-09-28T09:24:05Z</time>
      </trkpt>
      <trkpt lat="43.70866" lon="3.83402">
        <ele>126</ele>
        <time>2008-09-28T09:24:09Z</time>
      </trkpt>
      <trkpt lat="43.70866" lon="3.83402">
        <ele>126</ele>
        <time>2008-09-28T09:24:13Z</time>
      </trkpt>
      <trkpt lat="43.70866" lon="3.83402">
        <ele>126</ele>
        <time>2008-09-28T09:24:17Z</time>
      </trkpt>
      <trkpt lat="43.70866" lon="3.83403">
        <ele>126</ele>
        <time>2008-09-28T09:24:21Z</time>
      </trkpt>
      <trkpt lat="43.70866" lon="3.83403">
        <ele>126</ele>
        <time>2008-09-28T09:24:25Z</time>
      </trkpt>
      <trkpt lat="43.70866" lon="3.83403">
        <ele>126</ele>
        <time>2008-09-28T09:24:29Z</time>
      </trkpt>
      <trkpt lat="43.70866" lon="3.83403">
        <ele>126</ele>
        <time>2008-09-28T09:24:33Z</time>
      </trkpt>
      <trkpt lat="43.70866" lon="3.83403">
        <ele>126</ele>
        <time>2008-09-28T09:24:37Z</time>
      </trkpt>
      <trkpt lat="43.70866" lon="3.83403">
        <ele>126</ele>
        <time>2008-09-28T09:24:41Z</time>
      </trkpt>
      <trkpt lat="43.70866" lon="3.83403">
        <ele>126</ele>
        <time>2008-09-28T09:24:45Z</time>
      </trkpt>
      <trkpt lat="43.70866" lon="3.83403">
        <ele>126</ele>
        <time>2008-09-28T09:24:49Z</time>
      </trkpt>
      <trkpt lat="43.70866" lon="3.83403">
        <ele>126</ele>
        <time>2008-09-28T09:24:53Z</time>
      </trkpt>
      <trkpt lat="43.70866" lon="3.83403">
        <ele>126</ele>
        <time>2008-09-28T09:24:57Z</time>
      </trkpt>
      <trkpt lat="43.70866" lon="3.83403">
        <ele>126</ele>
        <time>2008-09-28T09:25:01Z</time>
      </trkpt>
      <trkpt lat="43.70865" lon="3.83403">
        <ele>126</ele>
        <time>2008-09-28T09:25:05Z</time>
      </trkpt>
      <trkpt lat="43.70865" lon="3.83403">
        <ele>126</ele>
        <time>2008-09-28T09:25:09Z</time>
      </trkpt>
      <trkpt lat="43.70865" lon="3.83402">
        <ele>126</ele>
        <time>2008-09-28T09:25:13Z</time>
      </trkpt>
      <trkpt lat="43.70865" lon="3.83402">
        <ele>126</ele>
        <time>2008-09-28T09:25:17Z</time>
      </trkpt>
      <trkpt lat="43.70865" lon="3.83402">
        <ele>126</ele>
        <time>2008-09-28T09:25:21Z</time>
      </trkpt>
      <trkpt lat="43.70865" lon="3.83402">
        <ele>126</ele>
        <time>2008-09-28T09:25:25Z</time>
      </trkpt>
      <trkpt lat="43.70865" lon="3.83402">
        <ele>126</ele>
        <time>2008-09-28T09:25:29Z</time>
      </trkpt>
      <trkpt lat="43.70864" lon="3.83402">
        <ele>126</ele>
        <time>2008-09-28T09:25:33Z</time>
      </trkpt>
      <trkpt lat="43.70864" lon="3.83402">
        <ele>126</ele>
        <time>2008-09-28T09:25:37Z</time>
      </trkpt>
      <trkpt lat="43.70864" lon="3.83401">
        <ele>126</ele>
        <time>2008-09-28T09:25:41Z</time>
      </trkpt>
      <trkpt lat="43.70864" lon="3.83401">
        <ele>126</ele>
        <time>2008-09-28T09:25:45Z</time>
      </trkpt>
      <trkpt lat="43.70864" lon="3.83401">
        <ele>126</ele>
        <time>2008-09-28T09:25:49Z</time>
      </trkpt>
      <trkpt lat="43.70864" lon="3.83401">
        <ele>126</ele>
        <time>2008-09-28T09:25:53Z</time>
      </trkpt>
      <trkpt lat="43.70864" lon="3.83401">
        <ele>126</ele>
        <time>2008-09-28T09:25:57Z</time>
      </trkpt>
      <trkpt lat="43.70863" lon="3.83401">
        <ele>126</ele>
        <time>2008-09-28T09:26:01Z</time>
      </trkpt>
      <trkpt lat="43.70863" lon="3.83401">
        <ele>126</ele>
        <time>2008-09-28T09:26:05Z</time>
      </trkpt>
      <trkpt lat="43.70863" lon="3.83401">
        <ele>126</ele>
        <time>2008-09-28T09:26:09Z</time>
      </trkpt>
      <trkpt lat="43.70863" lon="3.83401">
        <ele>126</ele>
        <time>2008-09-28T09:26:13Z</time>
      </trkpt>
      <trkpt lat="43.70863" lon="3.83401">
        <ele>126</ele>
        <time>2008-09-28T09:26:17Z</time>
      </trkpt>
      <trkpt lat="43.70863" lon="3.83401">
        <ele>126</ele>
        <time>2008-09-28T09:26:21Z</time>
      </trkpt>
      <trkpt lat="43.70863" lon="3.834">
        <ele>126</ele>
        <time>2008-09-28T09:26:25Z</time>
      </trkpt>
      <trkpt lat="43.70863" lon="3.834">
        <ele>126</ele>
        <time>2008-09-28T09:26:29Z</time>
      </trkpt>
      <trkpt lat="43.70862" lon="3.834">
        <ele>126</ele>
        <time>2008-09-28T09:26:33Z</time>
      </trkpt>
      <trkpt lat="43.70862" lon="3.834">
        <ele>126</ele>
        <time>2008-09-28T09:26:37Z</time>
      </trkpt>
      <trkpt lat="43.70862" lon="3.834">
        <ele>126</ele>
        <time>2008-09-28T09:26:41Z</time>
      </trkpt>
      <trkpt lat="43.70862" lon="3.834">
        <ele>126</ele>
        <time>2008-09-28T09:26:45Z</time>
      </trkpt>
      <trkpt lat="43.70862" lon="3.834">
        <ele>126</ele>
        <time>2008-09-28T09:26:49Z</time>
      </trkpt>
      <trkpt lat="43.70862" lon="3.834">
        <ele>126</ele>
        <time>2008-09-28T09:26:53Z</time>
      </trkpt>
    </trkseg>
  </trk>
</gpx>